Data for 07/15/2009

Time Sea-Level Adjusted Pressure Absolute Pressure Temperature Relative Humidity Dew Point Precipitation   
(mb) (inHg) (mb) (inHg) (C) (F) (%) (C) (F) (mm) (in)
00:01 1024 30.24 854 25.22 11.3 52.3 75 7 44.6 11.55 0.455
00:02 1024 30.24 854 25.22 11.1 52 75 6.9 44.4 11.41 0.449
00:03 1024 30.24 854 25.22 11.1 52 75 6.8 44.2 11.42 0.45
00:04 1024 30.24 854 25.22 11.2 52.1 74 6.7 44.1 11.48 0.452
00:05 1024 30.24 854 25.22 11.2 52.2 74 6.7 44.1 11.53 0.454
00:06 1024 30.24 854 25.22 11.4 52.4 73 6.7 44 11.62 0.457
00:07 1024 30.24 854 25.22 11.5 52.7 73 6.8 44.2 11.74 0.462
00:08 1024 30.24 854 25.22 11.5 52.7 72 6.7 44 11.77 0.463
00:09 1024 30.24 854 25.22 11.6 52.8 72 6.6 43.9 11.83 0.466
00:10 1024 30.24 854 25.22 11.6 53 72 6.8 44.2 11.95 0.47
00:11 1024 30.24 854 25.22 11.7 53 72 6.8 44.3 11.95 0.47
00:12 1024 30.24 854 25.22 11.6 52.8 73 6.9 44.4 11.88 0.468
00:13 1024 30.24 854 25.22 11.4 52.5 73 6.8 44.3 11.76 0.463
00:14 1024 30.24 854 25.22 11.2 52.2 74 6.9 44.4 11.62 0.457
00:15 1024 30.24 854 25.22 11 51.8 76 6.9 44.4 11.39 0.448
00:16 1024 30.24 854 25.22 10.8 51.4 77 6.9 44.4 11.19 0.441
00:17 1024 30.24 854 25.22 10.6 51 78 6.9 44.3 11 0.433
00:18 1024 30.24 854 25.22 10.4 50.8 78 6.8 44.2 10.86 0.428
00:19 1024 30.24 854 25.22 10.4 50.7 78 6.6 43.9 10.81 0.426
00:20 1024 30.24 854 25.22 10.5 50.8 77 6.6 44 10.79 0.425
00:21 1024 30.24 854 25.22 10.5 50.9 77 6.6 43.8 10.83 0.426
00:22 1024 30.24 854 25.22 10.6 51 76 6.6 43.9 10.85 0.427
00:23 1024 30.24 854 25.22 10.6 51 76 6.6 43.9 10.88 0.428
00:24 1024 30.24 854 25.22 10.5 51 76 6.6 43.9 10.85 0.427
00:25 1024 30.24 854 25.22 10.5 50.8 77 6.6 44 10.79 0.425
00:26 1024 30.24 854 25.22 10.4 50.7 77 6.5 43.7 10.73 0.422
00:27 1024 30.24 854 25.22 10.4 50.7 77 6.4 43.6 10.73 0.422
00:28 1024 30.24 854 25.22 10.4 50.8 76 6.5 43.6 10.76 0.424
00:29 1024 30.24 854 25.22 10.4 50.8 76 6.4 43.5 10.75 0.423
00:30 1024 30.24 854 25.22 10.5 50.8 76 6.4 43.6 10.76 0.424
00:31 1024 30.24 854 25.22 10.5 50.9 76 6.5 43.8 10.81 0.426
00:32 1024 30.24 854 25.22 10.5 50.9 77 6.7 44 10.78 0.424
00:33 1024 30.24 854 25.22 10.4 50.6 78 6.6 43.9 10.73 0.422
00:34 1024 30.24 854 25.22 10.3 50.6 78 6.6 43.9 10.67 0.42
00:35 1024 30.24 854 25.22 10.3 50.5 78 6.6 43.8 10.63 0.419
00:36 1024 30.24 854 25.22 10.2 50.4 78 6.6 43.8 10.62 0.418
00:37 1024 30.24 854 25.22 10.2 50.4 78 6.6 43.9 10.58 0.417
00:38 1024 30.24 854 25.22 10.2 50.3 78 6.6 43.8 10.52 0.414
00:39 1024 30.24 854 25.22 10.2 50.3 77 6.4 43.6 10.57 0.416
00:40 1024 30.24 854 25.22 10.4 50.6 76 6.4 43.5 10.68 0.42
00:41 1024 30.24 854 25.22 10.6 51.1 75 6.4 43.5 10.91 0.43
00:42 1024 30.24 854 25.22 10.8 51.5 75 6.6 43.8 11.05 0.435
00:43 1024 30.24 854 25.22 10.8 51.5 75 6.6 43.9 11.11 0.437
00:44 1024 30.24 854 25.22 10.7 51.3 76 6.7 44 11.08 0.436
00:45 1024 30.24 854 25.22 10.8 51.4 76 6.6 44 11.09 0.437
00:46 1024 30.24 853 25.19 10.8 51.4 75 6.6 43.8 11.12 0.438
00:47 1024 30.24 853 25.19 10.9 51.5 75 6.6 43.8 11.17 0.44
00:48 1024 30.24 853 25.19 10.9 51.7 75 6.6 43.9 11.29 0.444
00:49 1024 30.24 853 25.19 11 51.9 74 6.6 43.9 11.37 0.448
00:50 1024 30.24 853 25.19 11.1 52.1 72 6.4 43.5 11.45 0.451
00:51 1024 30.24 853 25.19 11.3 52.4 73 6.7 44.1 11.65 0.459
00:52 1024 30.24 854 25.22 11.4 52.5 73 6.7 44 11.74 0.462
00:53 1024 30.24 853 25.19 11.4 52.6 73 6.7 44 11.73 0.462
00:54 1024 30.24 854 25.22 11.5 52.6 72 6.7 44 11.78 0.464
00:55 1024 30.24 854 25.22 11.5 52.7 73 6.8 44.3 11.8 0.465
00:56 1024 30.24 854 25.22 11.4 52.6 73 6.8 44.3 11.74 0.462
00:57 1024 30.24 854 25.22 11.4 52.4 73 6.8 44.2 11.71 0.461
00:58 1024 30.24 854 25.22 11.3 52.3 73 6.6 43.9 11.63 0.458
00:59 1024 30.24 854 25.22 11.3 52.3 73 6.7 44 11.59 0.456
01:00 1024 30.24 854 25.22 11.2 52.2 74 6.8 44.2 11.54 0.454
01:01 1024 30.24 854 25.22 11.1 52 74 6.6 43.9 11.52 0.454
01:02 1024 30.24 854 25.22 11 51.9 75 6.7 44.1 11.42 0.45
01:03 1024 30.24 854 25.22 10.8 51.5 76 6.8 44.2 11.24 0.443
01:04 1024 30.24 854 25.22 10.7 51.2 77 6.8 44.3 11.09 0.437
01:05 1024 30.24 854 25.22 10.5 50.8 78 6.8 44.2 10.86 0.428
01:06 1024 30.24 854 25.22 10.4 50.6 78 6.7 44 10.73 0.422
01:07 1024 30.24 854 25.22 10.3 50.5 78 6.6 43.9 10.62 0.418
01:08 1024 30.24 854 25.22 10.2 50.3 78 6.5 43.8 10.56 0.416
01:09 1024 30.24 853 25.19 10.2 50.3 78 6.6 43.9 10.48 0.413
01:10 1024 30.24 854 25.22 10.1 50.1 79 6.5 43.8 10.44 0.411
01:11 1024 30.24 854 25.22 10.1 50.2 78 6.4 43.6 10.46 0.412
01:12 1024 30.24 854 25.22 10.2 50.4 77 6.5 43.7 10.54 0.415
01:13 1024 30.24 854 25.22 10.2 50.4 77 6.5 43.7 10.55 0.415
01:14 1024 30.24 854 25.22 10.2 50.4 78 6.5 43.7 10.54 0.415
01:15 1024 30.24 854 25.22 10.2 50.3 78 6.5 43.7 10.48 0.413
01:16 1024 30.24 854 25.22 10 50 79 6.5 43.7 10.38 0.409
01:17 1024 30.24 854 25.22 9.9 49.8 80 6.6 43.8 10.22 0.402
01:18 1024 30.24 854 25.22 9.7 49.4 81 6.6 43.9 10.1 0.398
01:19 1024 30.24 854 25.22 9.6 49.2 82 6.6 43.9 9.95 0.392
01:20 1024 30.24 854 25.22 9.4 49 83 6.6 43.9 9.85 0.388
01:21 1024 30.24 853 25.19 9.4 48.9 83 6.6 43.8 9.81 0.386
01:22 1024 30.24 854 25.22 9.3 48.7 83 6.5 43.7 9.69 0.381
01:23 1024 30.24 854 25.22 9.2 48.6 83 6.4 43.6 9.66 0.38
01:24 1024 30.24 854 25.22 9.3 48.7 82 6.4 43.5 9.62 0.379
01:25 1024 30.24 854 25.22 9.2 48.5 83 6.4 43.5 9.54 0.376
01:26 1024 30.24 854 25.22 9.1 48.4 83 6.4 43.5 9.51 0.374
01:27 1024 30.24 854 25.22 9 48.3 83 6.3 43.3 9.43 0.371
01:28 1024 30.24 854 25.22 9 48.1 83 6.2 43.2 9.34 0.368
01:29 1024 30.24 854 25.22 8.9 48.1 83 6.1 43.1 9.29 0.366
01:30 1024 30.24 853 25.19 9 48.1 82 6.1 43 9.29 0.366
01:31 1024 30.24 853 25.19 9 48.2 82 6.2 43.1 9.32 0.367
01:32 1024 30.24 853 25.19 9.1 48.4 82 6.1 43.1 9.42 0.371
01:33 1024 30.24 853 25.19 9.3 48.7 81 6.2 43.1 9.53 0.375
01:34 1024 30.24 853 25.19 9.4 48.8 80 6.2 43.1 9.66 0.38
01:35 1024 30.24 853 25.19 9.4 48.9 80 6.2 43.1 9.68 0.381
01:36 1024 30.24 853 25.19 9.5 49 79 6.1 43 9.76 0.384
01:37 1024 30.24 853 25.19 9.6 49.3 79 6.1 43.1 9.93 0.391
01:38 1024 30.24 853 25.19 9.8 49.6 79 6.2 43.2 10.01 0.394
01:39 1024 30.24 853 25.19 9.7 49.5 78 6.2 43.1 10 0.394
01:40 1024 30.24 853 25.19 9.7 49.5 78 6.2 43.1 10.03 0.395
01:41 1024 30.24 853 25.19 9.8 49.6 78 6.1 43 10.08 0.397
01:42 1024 30.24 853 25.19 9.9 49.8 77 6.1 43 10.18 0.401
01:43 1024 30.24 853 25.19 10 49.9 77 6.1 43 10.21 0.402
01:44 1024 30.24 853 25.19 10 50 77 6.1 43 10.31 0.406
01:45 1024 30.24 853 25.19 10.1 50.1 76 6.1 42.9 10.36 0.408
01:46 1024 30.24 853 25.19 10.1 50.2 76 6.1 43 10.41 0.41
01:47 1024 30.24 853 25.19 10.1 50.2 76 6.2 43.1 10.42 0.41
01:48 1024 30.24 853 25.19 10.1 50.2 76 6 42.9 10.47 0.412
01:49 1024 30.24 853 25.19 10.2 50.3 76 6 42.9 10.44 0.411
01:50 1024 30.24 853 25.19 10.2 50.4 75 6.1 43 10.53 0.415
01:51 1024 30.24 853 25.19 10.3 50.5 75 6 42.9 10.59 0.417
01:52 1024 30.24 853 25.19 10.3 50.6 74 6 42.7 10.66 0.42
01:53 1024 30.24 853 25.19 10.4 50.8 74 6 42.8 10.72 0.422
01:54 1024 30.24 853 25.19 10.5 50.8 74 6 42.9 10.72 0.422
01:55 1024 30.24 853 25.19 10.4 50.7 74 6.1 42.9 10.71 0.422
01:56 1024 30.24 853 25.19 10.4 50.7 75 6.1 43 10.68 0.42
01:57 1024 30.24 853 25.19 10.3 50.6 75 6.1 42.9 10.65 0.419
01:58 1024 30.24 853 25.19 10.3 50.5 75 6.1 42.9 10.6 0.417
01:59 1024 30.24 853 25.19 10.3 50.5 75 6 42.8 10.6 0.417
02:00 1024 30.24 853 25.19 10.4 50.7 74 6 42.7 10.62 0.418
02:01 1024 30.24 853 25.19 10.3 50.6 74 6 42.8 10.66 0.42
02:02 1024 30.24 853 25.19 10.3 50.6 74 6 42.8 10.63 0.419
02:03 1024 30.24 853 25.19 10.3 50.5 74 5.9 42.6 10.68 0.42
02:04 1024 30.24 853 25.19 10.4 50.7 74 5.9 42.7 10.73 0.422
02:05 1024 30.24 853 25.19 10.4 50.8 74 6 42.7 10.77 0.424
02:06 1024 30.24 853 25.19 10.3 50.5 74 5.9 42.6 10.66 0.42
02:07 1024 30.24 853 25.19 10 49.9 76 5.9 42.7 10.36 0.408
02:08 1024 30.24 853 25.19 9.8 49.6 77 5.9 42.7 10.15 0.4
02:09 1024 30.24 853 25.19 9.7 49.5 77 5.9 42.5 10.12 0.398
02:10 1024 30.24 853 25.19 9.7 49.5 77 5.9 42.7 10.12 0.398
02:11 1024 30.24 853 25.19 9.7 49.5 77 6 42.8 10.08 0.397
02:12 1024 30.24 853 25.19 9.8 49.6 78 6 42.9 10.07 0.396
02:13 1024 30.24 853 25.19 9.7 49.5 77 6 42.8 10.11 0.398
02:14 1024 30.24 853 25.19 9.7 49.5 78 6 42.8 10.06 0.396
02:15 1024 30.24 853 25.19 9.7 49.4 78 6 42.9 10.01 0.394
02:16 1024 30.24 853 25.19 9.6 49.3 78 6 42.8 9.96 0.392
02:17 1024 30.24 853 25.19 9.6 49.2 79 6 42.9 9.94 0.391
02:18 1024 30.24 853 25.19 9.5 49.2 79 6.1 42.9 9.91 0.39
02:19 1024 30.24 853 25.19 9.5 49 79 6.1 42.9 9.82 0.387
02:20 1024 30.24 853 25.19 9.4 48.9 79 6.1 42.9 9.75 0.384
02:21 1024 30.24 853 25.19 9.4 48.8 79 6 42.8 9.72 0.383
02:22 1024 30.24 853 25.19 9.3 48.8 80 6 42.8 9.69 0.381
02:23 1024 30.24 853 25.19 9.3 48.7 80 6 42.7 9.68 0.381
02:24 1024 30.24 853 25.19 9.3 48.7 79 5.9 42.7 9.63 0.379
02:25 1024 30.24 853 25.19 9.2 48.5 80 5.9 42.7 9.54 0.376
02:26 1024 30.24 853 25.19 8.9 48.1 81 5.8 42.5 9.36 0.369
02:27 1024 30.24 853 25.19 8.8 47.8 82 5.8 42.5 9.2 0.362
02:28 1024 30.24 853 25.19 8.6 47.5 83 5.9 42.6 9.03 0.356
02:29 1024 30.24 853 25.19 8.6 47.4 83 5.9 42.6 8.98 0.354
02:30 1024 30.24 853 25.19 8.5 47.3 84 5.9 42.6 8.91 0.351
02:31 1024 30.24 853 25.19 8.5 47.3 84 5.9 42.6 8.93 0.352
02:32 1024 30.24 853 25.19 8.5 47.4 83 5.9 42.6 8.95 0.352
02:33 1024 30.24 853 25.19 8.6 47.4 83 5.9 42.6 8.91 0.351
02:34 1024 30.24 853 25.19 8.5 47.2 83 5.8 42.4 8.87 0.349
02:35 1024 30.24 853 25.19 8.4 47.1 83 5.8 42.4 8.82 0.347
02:36 1024 30.24 853 25.19 8.4 47.1 83 5.7 42.3 8.77 0.345
02:37 1024 30.24 853 25.19 8.3 46.9 84 5.7 42.2 8.73 0.344
02:38 1024 30.24 853 25.19 8.2 46.7 84 5.7 42.2 8.59 0.338
02:39 1024 30.24 853 25.19 8 46.4 85 5.6 42.1 8.47 0.333
02:40 1024 30.24 853 25.19 7.9 46.3 85 5.6 42.2 8.37 0.33
02:41 1024 30.24 853 25.19 7.9 46.1 86 5.6 42.2 8.3 0.327
02:42 1024 30.24 853 25.19 7.9 46.2 85 5.6 42.1 8.33 0.328
02:43 1024 30.24 853 25.19 7.9 46.3 85 5.6 42.1 8.34 0.328
02:44 1024 30.24 853 25.19 7.9 46.3 85 5.6 42.1 8.33 0.328
02:45 1024 30.24 853 25.19 7.9 46.3 85 5.6 42.1 8.33 0.328
02:46 1024 30.24 853 25.19 8 46.4 85 5.7 42.2 8.38 0.33
02:47 1024 30.24 853 25.19 8 46.5 85 5.7 42.2 8.43 0.332
02:48 1024 30.24 853 25.19 8.1 46.5 85 5.7 42.3 8.44 0.332
02:49 1024 30.24 853 25.19 8.2 46.7 84 5.7 42.3 8.53 0.336
02:50 1024 30.24 853 25.19 8.3 47 83 5.7 42.2 8.7 0.343
02:51 1024 30.24 853 25.19 8.5 47.2 83 5.7 42.3 8.79 0.346
02:52 1024 30.24 853 25.19 8.7 47.6 82 5.7 42.3 9 0.354
02:53 1024 30.24 853 25.19 8.9 48.1 80 5.8 42.4 9.24 0.364
02:54 1024 30.24 853 25.19 9.1 48.4 80 5.9 42.6 9.37 0.369
02:55 1024 30.24 853 25.19 9.1 48.4 80 5.9 42.6 9.39 0.37
02:56 1024 30.24 853 25.19 9 48.3 81 5.9 42.6 9.38 0.369
02:57 1024 30.24 853 25.19 9 48.2 81 5.8 42.5 9.3 0.366
02:58 1024 30.24 853 25.19 9 48.2 80 5.8 42.4 9.33 0.367
02:59 1024 30.24 853 25.19 9.1 48.4 80 5.8 42.5 9.4 0.37
03:00 1024 30.24 853 25.19 9.2 48.6 79 5.8 42.5 9.49 0.374
03:01 1024 30.24 853 25.19 9.3 48.7 79 5.9 42.5 9.6 0.378
03:02 1024 30.24 853 25.19 9.3 48.8 79 5.9 42.6 9.63 0.379
03:03 1024 30.24 853 25.19 9.3 48.7 79 5.9 42.6 9.61 0.378
03:04 1024 30.24 853 25.19 9.3 48.7 79 5.9 42.6 9.6 0.378
03:05 1024 30.24 853 25.19 9.3 48.7 79 5.9 42.6 9.59 0.378
03:06 1024 30.24 853 25.19 9.3 48.8 79 5.9 42.6 9.64 0.38
03:07 1024 30.24 853 25.19 9.4 48.9 79 5.9 42.6 9.69 0.381
03:08 1024 30.24 853 25.19 9.4 49 78 5.9 42.6 9.72 0.383
03:09 1024 30.24 853 25.19 9.5 49.1 78 5.9 42.7 9.77 0.385
03:10 1024 30.24 853 25.19 9.5 49 78 5.9 42.6 9.76 0.384
03:11 1024 30.24 853 25.19 9.5 49 78 5.9 42.5 9.78 0.385
03:12 1024 30.24 853 25.19 9.5 49 78 5.8 42.4 9.77 0.385
03:13 1024 30.24 853 25.19 9.5 49.1 78 5.8 42.4 9.8 0.386
03:14 1024 30.24 853 25.19 9.5 49 78 5.8 42.5 9.8 0.386
03:15 1024 30.24 853 25.19 9.4 48.9 79 5.9 42.6 9.71 0.382
03:16 1024 30.24 853 25.19 9.3 48.7 79 5.9 42.6 9.62 0.379
03:17 1024 30.24 853 25.19 9.1 48.3 80 5.8 42.5 9.51 0.374
03:18 1024 30.24 853 25.19 8.9 48 81 5.8 42.5 9.32 0.367
03:19 1024 30.24 853 25.19 8.8 47.8 81 5.8 42.4 9.19 0.362
03:20 1024 30.24 853 25.19 8.7 47.6 82 5.8 42.5 9.1 0.358
03:21 1024 30.24 853 25.19 8.5 47.4 83 5.8 42.4 8.99 0.354
03:22 1024 30.24 853 25.19 8.4 47.1 83 5.7 42.3 8.88 0.35
03:23 1024 30.24 853 25.19 8.3 47 84 5.7 42.3 8.8 0.346
03:24 1024 30.24 853 25.19 8.3 46.9 84 5.8 42.4 8.7 0.343
03:25 1024 30.24 853 25.19 8.2 46.8 85 5.8 42.4 8.67 0.341
03:26 1024 30.24 853 25.19 8.2 46.7 85 5.8 42.4 8.61 0.339
03:27 1024 30.24 853 25.19 8.1 46.6 85 5.8 42.4 8.56 0.337
03:28 1024 30.24 853 25.19 8.1 46.6 85 5.7 42.3 8.52 0.335
03:29 1024 30.24 853 25.19 8.1 46.5 86 5.9 42.6 8.49 0.334
03:30 1024 30.24 853 25.19 8.1 46.5 86 5.8 42.5 8.48 0.334
03:31 1024 30.24 853 25.19 8 46.5 86 5.8 42.5 8.45 0.333
03:32 1024 30.24 853 25.19 8.1 46.5 86 5.8 42.5 8.45 0.333
03:33 1024 30.24 853 25.19 8 46.4 86 5.8 42.4 8.39 0.33
03:34 1024 30.24 853 25.19 7.9 46.3 86 5.7 42.2 8.34 0.328
03:35 1024 30.24 853 25.19 7.9 46.3 85 5.6 42.1 8.3 0.327
03:36 1024 30.24 853 25.19 7.9 46.3 85 5.6 42 8.28 0.326
03:37 1024 30.24 853 25.19 8 46.3 85 5.6 42 8.3 0.327
03:38 1024 30.24 853 25.19 8 46.4 85 5.6 42.1 8.36 0.329
03:39 1024 30.24 853 25.19 8.1 46.6 85 5.7 42.2 8.4 0.331
03:40 1024 30.24 853 25.19 8.2 46.7 84 5.7 42.2 8.54 0.336
03:41 1024 30.24 853 25.19 8.3 46.9 84 5.7 42.2 8.59 0.338
03:42 1024 30.24 853 25.19 8.4 47.1 83 5.7 42.2 8.7 0.343
03:43 1024 30.24 853 25.19 8.6 47.5 82 5.6 42.2 8.86 0.349
03:44 1024 30.24 853 25.19 8.8 47.8 81 5.7 42.3 9.02 0.355
03:45 1024 30.24 853 25.19 9 48.1 81 5.8 42.4 9.18 0.361
03:46 1024 30.24 853 25.19 9.2 48.5 79 5.8 42.5 9.39 0.37
03:47 1024 30.24 853 25.19 9.3 48.7 79 5.9 42.6 9.57 0.377
03:48 1024 30.24 853 25.19 9.4 49 79 6 42.7 9.71 0.382
03:49 1024 30.24 853 25.19 9.5 49.1 79 6 42.9 9.76 0.384
03:50 1024 30.24 853 25.19 9.6 49.2 79 6 42.9 9.81 0.386
03:51 1024 30.24 853 25.19 9.6 49.2 78 6 42.8 9.86 0.388
03:52 1024 30.24 853 25.19 9.7 49.4 78 6 42.9 9.91 0.39
03:53 1024 30.24 853 25.19 9.7 49.5 78 6.1 42.9 10.03 0.395
03:54 1024 30.24 853 25.19 9.8 49.7 78 6.2 43.1 10.12 0.398
03:55 1024 30.24 853 25.19 9.9 49.8 77 6.1 43 10.14 0.399
03:56 1024 30.24 853 25.19 9.8 49.7 77 6.1 42.9 10.14 0.399
03:57 1024 30.24 853 25.19 9.8 49.6 78 6.1 43 10.12 0.398
03:58 1024 30.24 853 25.19 9.8 49.6 78 6.1 43 10.06 0.396
03:59 1024 30.24 853 25.19 9.7 49.5 78 6.1 42.9 10.03 0.395
04:00 1024 30.24 853 25.19 9.7 49.5 78 6.1 42.9 10.01 0.394
04:01 1024 30.24 853 25.19 9.7 49.5 78 6.1 42.9 9.98 0.393
04:02 1024 30.24 853 25.19 9.7 49.5 78 6 42.8 10.01 0.394
04:03 1024 30.24 853 25.19 9.8 49.6 77 6 42.7 10.02 0.394
04:04 1024 30.24 853 25.19 9.8 49.6 77 5.9 42.6 10.06 0.396
04:05 1024 30.24 853 25.19 9.8 49.7 77 6 42.7 10.12 0.398
04:06 1024 30.24 853 25.19 9.8 49.7 77 5.9 42.7 10.1 0.398
04:07 1024 30.24 853 25.19 9.9 49.8 76 5.9 42.6 10.11 0.398
04:08 1024 30.24 853 25.19 10 49.9 76 5.9 42.6 10.18 0.401
04:09 1024 30.24 853 25.19 9.9 49.7 76 5.8 42.5 10.05 0.396
04:10 1024 30.24 853 25.19 9.6 49.2 77 5.8 42.5 9.85 0.388
04:11 1024 30.24 853 25.19 9.2 48.6 79 5.8 42.4 9.55 0.376
04:12 1024 30.24 853 25.19 9 48.2 80 5.8 42.5 9.33 0.367
04:13 1024 30.24 853 25.19 8.8 47.8 81 5.8 42.4 9.17 0.361
04:14 1024 30.24 853 25.19 8.7 47.6 82 5.7 42.3 9.06 0.357
04:15 1024 30.24 853 25.19 8.6 47.4 82 5.7 42.3 8.94 0.352
04:16 1024 30.24 853 25.19 8.4 47.1 83 5.7 42.3 8.81 0.347
04:17 1024 30.24 853 25.19 8.3 47 84 5.7 42.3 8.72 0.343
04:18 1024 30.24 853 25.19 8.3 46.9 84 5.7 42.2 8.69 0.342
04:19 1024 30.24 853 25.19 8.2 46.8 84 5.6 42.1 8.67 0.341
04:20 1024 30.24 853 25.19 8.3 46.9 83 5.6 42.1 8.66 0.341
04:21 1024 30.24 853 25.19 8.3 46.9 83 5.6 42.1 8.65 0.341
04:22 1024 30.24 853 25.19 8.2 46.8 84 5.6 42.1 8.57 0.337
04:23 1024 30.24 853 25.19 8.2 46.7 84 5.6 42.1 8.56 0.337
04:24 1024 30.24 853 25.19 8.1 46.6 84 5.6 42.1 8.52 0.335
04:25 1024 30.24 853 25.19 8.1 46.6 84 5.6 42.1 8.52 0.335
04:26 1024 30.24 853 25.19 8.2 46.7 84 5.6 42.1 8.52 0.335
04:27 1024 30.24 853 25.19 8.2 46.7 84 5.6 42.1 8.52 0.335
04:28 1024 30.24 853 25.19 8.1 46.5 84 5.5 42 8.51 0.335
04:29 1024 30.24 853 25.19 8 46.4 85 5.6 42.1 8.39 0.33
04:30 1024 30.24 853 25.19 8 46.3 85 5.6 42.1 8.37 0.33
04:31 1024 30.24 853 25.19 7.9 46.2 85 5.6 42 8.28 0.326
04:32 1024 30.24 853 25.19 7.8 46.1 85 5.5 41.9 8.21 0.323
04:33 1024 30.24 853 25.19 7.8 46 86 5.5 41.9 8.1 0.319
04:34 1024 30.24 853 25.19 7.7 45.9 86 5.5 41.9 8.12 0.32
04:35 1024 30.24 853 25.19 7.7 45.8 86 5.4 41.8 8.05 0.317
04:36 1024 30.24 853 25.19 7.6 45.7 86 5.4 41.8 7.99 0.315
04:37 1024 30.24 853 25.19 7.5 45.5 87 5.4 41.8 7.94 0.313
04:38 1024 30.24 853 25.19 7.5 45.5 87 5.5 41.9 7.88 0.31
04:39 1024 30.24 853 25.19 7.4 45.4 87 5.4 41.8 7.88 0.31
04:40 1024 30.24 853 25.19 7.4 45.4 87 5.5 41.8 7.88 0.31
04:41 1024 30.24 853 25.19 7.4 45.4 87 5.5 41.9 7.85 0.309
04:42 1024 30.24 853 25.19 7.5 45.4 87 5.5 41.9 7.87 0.31
04:43 1024 30.24 853 25.19 7.5 45.5 87 5.5 41.9 7.89 0.311
04:44 1024 30.24 853 25.19 7.6 45.6 87 5.5 41.9 7.91 0.311
04:45 1024 30.24 853 25.19 7.7 45.8 86 5.5 42 7.99 0.315
04:46 1024 30.24 853 25.19 7.9 46.2 85 5.6 42 8.16 0.321
04:47 1024 30.24 853 25.19 8.1 46.6 84 5.5 42 8.39 0.33
04:48 1024 30.24 853 25.19 8.3 47 83 5.6 42 8.6 0.339
04:49 1024 30.24 853 25.19 8.5 47.3 82 5.6 42.2 8.75 0.344
04:50 1024 30.24 853 25.19 8.6 47.4 82 5.6 42.1 8.85 0.348
04:51 1024 30.24 853 25.19 8.7 47.6 81 5.7 42.2 8.9 0.35
04:52 1024 30.24 853 25.19 8.7 47.6 81 5.6 42.1 8.94 0.352
04:53 1024 30.24 853 25.19 8.8 47.8 81 5.6 42.2 9.08 0.357
04:54 1024 30.24 853 25.19 8.8 47.9 80 5.6 42.1 9.17 0.361
04:55 1024 30.24 853 25.19 9 48.1 80 5.6 42.2 9.26 0.365
04:56 1024 30.24 853 25.19 8.9 48.1 80 5.6 42.2 9.2 0.362
04:57 1024 30.24 853 25.19 8.9 48 80 5.6 42.2 9.12 0.359
04:58 1024 30.24 853 25.19 8.7 47.7 81 5.7 42.3 9.01 0.355
04:59 1024 30.24 853 25.19 8.6 47.4 82 5.7 42.3 8.9 0.35
05:00 1024 30.24 853 25.19 8.5 47.2 82 5.6 42.1 8.86 0.349
05:01 1024 30.24 853 25.19 8.4 47.2 82 5.6 42.1 8.79 0.346
05:02 1024 30.24 853 25.19 8.4 47.1 83 5.6 42.1 8.76 0.345
05:03 1024 30.24 853 25.19 8.4 47 83 5.6 42 8.73 0.344
05:04 1024 30.24 853 25.19 8.3 47 83 5.6 42.1 8.69 0.342
05:05 1024 30.24 853 25.19 8.3 47 83 5.7 42.2 8.69 0.342
05:06 1024 30.24 853 25.19 8.3 46.9 83 5.6 42.1 8.63 0.34
05:07 1024 30.24 853 25.19 8.3 46.9 83 5.6 42.1 8.62 0.339
05:08 1024 30.24 853 25.19 8.3 46.9 83 5.5 42 8.6 0.339
05:09 1024 30.24 853 25.19 8.2 46.8 83 5.4 41.8 8.57 0.337
05:10 1024 30.24 853 25.19 8 46.4 83 5.3 41.6 8.4 0.331
05:11 1024 30.24 853 25.19 7.9 46.1 84 5.3 41.5 8.25 0.325
05:12 1024 30.24 853 25.19 7.7 45.8 84 5.2 41.4 8.09 0.319
05:13 1024 30.24 853 25.19 7.5 45.6 86 5.3 41.6 7.96 0.313
05:14 1024 30.24 853 25.19 7.5 45.5 86 5.4 41.7 7.92 0.312
05:15 1024 30.24 853 25.19 7.5 45.5 86 5.4 41.6 7.9 0.311
05:16 1024 30.24 853 25.19 7.5 45.5 86 5.4 41.6 7.9 0.311
05:17 1024 30.24 853 25.19 7.4 45.4 86 5.2 41.3 7.81 0.307
05:18 1024 30.24 853 25.19 7.4 45.2 86 5.3 41.5 7.77 0.306
05:19 1024 30.24 853 25.19 7.3 45.1 87 5.2 41.3 7.65 0.301
05:20 1024 30.24 853 25.19 7.1 44.7 88 5.2 41.3 7.53 0.296
05:21 1024 30.24 853 25.19 7.1 44.7 88 5.3 41.5 7.52 0.296
05:22 1024 30.24 853 25.19 7.1 44.8 88 5.2 41.4 7.53 0.296
05:23 1024 30.24 853 25.19 7.1 44.7 88 5.2 41.4 7.49 0.295
05:24 1024 30.24 853 25.19 7 44.7 89 5.3 41.5 7.52 0.296
05:25 1024 30.24 853 25.19 7.1 44.8 89 5.3 41.6 7.51 0.296
05:26 1024 30.24 853 25.19 7.1 44.7 88 5.3 41.5 7.51 0.296
05:27 1024 30.24 853 25.19 7.1 44.8 89 5.3 41.6 7.48 0.294
05:28 1024 30.24 853 25.19 7.1 44.8 89 5.3 41.6 7.52 0.296
05:29 1024 30.24 853 25.19 7.1 44.8 89 5.4 41.7 7.55 0.297
05:30 1024 30.24 853 25.19 7.1 44.8 88 5.3 41.6 7.57 0.298
05:31 1024 30.24 853 25.19 7.2 44.9 88 5.4 41.7 7.56 0.298
05:32 1024 30.24 853 25.19 7.1 44.8 88 5.3 41.6 7.54 0.297
05:33 1024 30.24 853 25.19 7.1 44.8 89 5.4 41.7 7.49 0.295
05:34 1024 30.24 853 25.19 7.1 44.7 89 5.4 41.7 7.47 0.294
05:35 1024 30.24 853 25.19 7 44.7 89 5.4 41.7 7.45 0.293
05:36 1024 30.24 853 25.19 7.1 44.8 89 5.4 41.8 7.48 0.294
05:37 1024 30.24 853 25.19 7.1 44.8 89 5.4 41.7 7.48 0.294
05:38 1024 30.24 853 25.19 7.1 44.8 89 5.4 41.7 7.49 0.295
05:39 1024 30.24 853 25.19 7.1 44.7 88 5.3 41.5 7.45 0.293
05:40 1024 30.24 853 25.19 7 44.7 89 5.3 41.5 7.42 0.292
05:41 1024 30.24 853 25.19 7 44.6 89 5.2 41.4 7.37 0.29
05:42 1024 30.24 853 25.19 6.9 44.5 89 5.2 41.3 7.31 0.288
05:43 1024 30.24 853 25.19 6.8 44.3 89 5.2 41.3 7.21 0.284
05:44 1024 30.24 853 25.19 6.7 44.1 90 5.2 41.3 7.19 0.283
05:45 1024 30.24 853 25.19 6.7 44.1 89 5.1 41.2 7.15 0.281
05:46 1024 30.24 853 25.19 6.7 44.1 89 5.1 41.1 7.12 0.28
05:47 1024 30.24 853 25.19 6.6 43.9 90 5 41.1 7.05 0.278
05:48 1024 30.24 853 25.19 6.6 43.8 90 5 41.1 6.957 0.274
05:49 1024 30.24 853 25.19 6.5 43.8 90 5 41 6.935 0.273
05:50 1024 30.24 853 25.19 6.5 43.7 90 5 41.1 6.889 0.271
05:51 1024 30.24 853 25.19 6.4 43.6 90 4.9 40.8 6.833 0.269
05:52 1024 30.24 853 25.19 6.3 43.4 91 4.9 40.8 6.759 0.266
05:53 1024 30.24 853 25.19 6.3 43.4 92 5.1 41.1 6.759 0.266
05:54 1024 30.24 853 25.19 6.5 43.7 91 5.2 41.4 6.856 0.27
05:55 1024 30.24 853 25.19 6.7 44 91 5.3 41.6 6.991 0.275
05:56 1024 30.24 853 25.19 6.9 44.4 90 5.3 41.5 7.19 0.283
05:57 1024 30.24 853 25.19 7 44.7 89 5.3 41.5 7.3 0.287
05:58 1024 30.24 853 25.19 7.1 44.9 88 5.3 41.6 7.38 0.291
05:59 1024 30.24 853 25.19 7.2 44.9 88 5.3 41.5 7.43 0.293
06:00 1024 30.24 853 25.19 7.1 44.9 88 5.2 41.4 7.47 0.294
06:01 1024 30.24 853 25.19 7.1 44.8 88 5.2 41.4 7.39 0.291
06:02 1024 30.24 853 25.19 7.1 44.8 88 5.3 41.5 7.39 0.291
06:03 1024 30.24 853 25.19 7.1 44.9 88 5.3 41.5 7.41 0.292
06:04 1024 30.24 853 25.19 7.2 45 87 5.2 41.4 7.48 0.294
06:05 1024 30.24 853 25.19 7.3 45.1 86 5.1 41.3 7.47 0.294
06:06 1024 30.24 853 25.19 7.2 44.9 87 5.1 41.2 7.4 0.291
06:07 1024 30.24 853 25.19 7.1 44.8 88 5.2 41.3 7.38 0.291
06:08 1024 30.24 853 25.19 7.2 44.9 88 5.4 41.7 7.48 0.294
06:09 1024 30.24 853 25.19 7.4 45.2 88 5.4 41.8 7.61 0.3
06:10 1024 30.24 853 25.19 7.6 45.6 87 5.5 42 7.77 0.306
06:11 1024 30.24 853 25.19 7.8 46.1 86 5.5 42 7.94 0.313
06:12 1024 30.24 853 25.19 7.9 46.3 85 5.5 41.9 8.06 0.317
06:13 1024 30.24 853 25.19 7.9 46.3 84 5.5 41.8 8.08 0.318
06:14 1024 30.24 853 25.19 7.9 46.3 84 5.4 41.7 8.09 0.319
06:15 1024 30.24 853 25.19 7.9 46.2 84 5.4 41.7 8.14 0.32
06:16 1024 30.24 853 25.19 7.9 46.3 84 5.4 41.8 8.17 0.322
06:17 1024 30.24 853 25.19 7.9 46.2 84 5.4 41.7 8.14 0.32
06:18 1024 30.24 853 25.19 7.9 46.1 84 5.2 41.4 8.14 0.32
06:19 1024 30.24 853 25.19 7.7 45.8 84 5.1 41.2 8 0.315
06:20 1024 30.24 853 25.19 7.4 45.4 86 5.2 41.4 7.85 0.309
06:21 1024 30.24 853 25.19 7.3 45.2 86 5.2 41.4 7.73 0.304
06:22 1024 30.24 853 25.19 7.3 45.1 87 5.3 41.5 7.68 0.302
06:23 1024 30.24 853 25.19 7.4 45.4 87 5.5 41.9 7.77 0.306
06:24 1024 30.24 853 25.19 7.7 45.9 85 5.5 41.8 7.98 0.314
06:25 1024 30.24 853 25.19 7.9 46.3 84 5.5 41.8 8.14 0.32
06:26 1024 30.24 853 25.19 8 46.5 84 5.5 41.8 8.24 0.324
06:27 1024 30.24 853 25.19 8.1 46.5 84 5.5 41.8 8.28 0.326
06:28 1024 30.24 853 25.19 8 46.3 84 5.4 41.7 8.24 0.324
06:29 1024 30.24 854 25.22 7.8 46.1 84 5.4 41.7 8.14 0.32
06:30 1024 30.24 854 25.22 7.7 45.8 86 5.4 41.8 8.04 0.317
06:31 1024 30.24 854 25.22 7.7 45.8 86 5.5 41.9 8.04 0.317
06:32 1024 30.24 854 25.22 7.8 46.1 85 5.5 41.9 8.15 0.321
06:33 1024 30.24 854 25.22 7.9 46.3 85 5.6 42 8.24 0.324
06:34 1024 30.24 854 25.22 8 46.4 85 5.6 42 8.29 0.326
06:35 1024 30.24 854 25.22 8 46.3 85 5.6 42.2 8.24 0.324
06:36 1024 30.24 854 25.22 7.9 46.2 86 5.7 42.2 8.24 0.324
06:37 1024 30.24 854 25.22 7.8 46 86 5.7 42.2 8.18 0.322
06:38 1024 30.24 854 25.22 7.7 45.8 87 5.6 42.1 8.12 0.32
06:39 1024 30.24 854 25.22 7.7 45.8 87 5.7 42.3 8.05 0.317
06:40 1024 30.24 854 25.22 7.6 45.7 88 5.7 42.2 8.01 0.315
06:41 1024 30.24 854 25.22 7.6 45.7 88 5.7 42.3 8.01 0.315
06:42 1024 30.24 854 25.22 7.6 45.7 88 5.7 42.3 8.01 0.315
06:43 1024 30.24 854 25.22 7.6 45.6 88 5.7 42.3 8 0.315
06:44 1024 30.24 854 25.22 7.6 45.7 88 5.8 42.4 8.01 0.315
06:45 1024 30.24 854 25.22 7.6 45.8 88 5.8 42.5 8.01 0.315
06:46 1024 30.24 854 25.22 7.7 45.8 88 5.9 42.6 8.11 0.319
06:47 1024 30.24 854 25.22 7.7 45.9 89 5.9 42.7 8.16 0.321
06:48 1025 30.27 854 25.22 7.8 46 89 6.1 43 8.23 0.324
06:49 1024 30.24 854 25.22 7.9 46.2 88 6.1 43 8.33 0.328
06:50 1025 30.27 854 25.22 8 46.3 89 6.2 43.2 8.42 0.331
06:51 1024 30.24 854 25.22 8.1 46.6 88 6.2 43.1 8.57 0.337
06:52 1024 30.24 854 25.22 8.2 46.8 87 6.2 43.2 8.71 0.343
06:53 1025 30.27 854 25.22 8.4 47.1 86 6.2 43.2 8.8 0.346
06:54 1025 30.27 854 25.22 8.5 47.3 86 6.3 43.4 8.91 0.351
06:55 1025 30.27 854 25.22 8.6 47.5 86 6.4 43.5 9.04 0.356
06:56 1025 30.27 854 25.22 8.7 47.7 86 6.5 43.6 9.11 0.359
06:57 1024 30.24 854 25.22 8.7 47.7 86 6.6 43.8 9.14 0.36
06:58 1024 30.24 854 25.22 8.8 47.8 86 6.6 43.9 9.23 0.363
06:59 1024 30.24 854 25.22 8.8 47.9 85 6.5 43.7 9.31 0.367
07:00 1025 30.27 854 25.22 8.9 48.1 85 6.5 43.7 9.42 0.371
07:01 1025 30.27 854 25.22 9 48.3 84 6.5 43.7 9.52 0.375
07:02 1025 30.27 854 25.22 9.2 48.5 84 6.6 43.9 9.6 0.378
07:03 1025 30.27 854 25.22 9.2 48.6 84 6.6 43.9 9.69 0.381
07:04 1025 30.27 854 25.22 9.3 48.7 84 6.7 44 9.79 0.385
07:05 1025 30.27 854 25.22 9.4 48.9 83 6.7 44.1 9.83 0.387
07:06 1025 30.27 854 25.22 9.4 49 84 6.8 44.3 9.88 0.389
07:07 1025 30.27 854 25.22 9.5 49.1 83 6.9 44.4 9.98 0.393
07:08 1025 30.27 854 25.22 9.6 49.3 84 7 44.6 10.05 0.396
07:09 1025 30.27 854 25.22 9.7 49.4 83 6.9 44.5 10.1 0.398
07:10 1025 30.27 854 25.22 9.7 49.5 84 7.1 44.7 10.2 0.402
07:11 1025 30.27 854 25.22 9.8 49.7 84 7.3 45.1 10.27 0.404
07:12 1025 30.27 854 25.22 9.9 49.9 84 7.4 45.3 10.39 0.409
07:13 1025 30.27 854 25.22 10 50.1 84 7.5 45.5 10.48 0.413
07:14 1025 30.27 854 25.22 10.1 50.2 83 7.4 45.3 10.59 0.417
07:15 1025 30.27 854 25.22 10.2 50.4 83 7.4 45.3 10.7 0.421
07:16 1025 30.27 854 25.22 10.3 50.5 82 7.3 45.2 10.77 0.424
07:17 1025 30.27 854 25.22 10.4 50.7 83 7.7 45.8 10.87 0.428
07:18 1025 30.27 854 25.22 10.5 50.9 82 7.6 45.7 10.97 0.432
07:19 1025 30.27 854 25.22 10.6 51 81 7.5 45.4 11.07 0.436
07:20 1025 30.27 854 25.22 10.6 51.1 81 7.5 45.4 11.16 0.439
07:21 1025 30.27 854 25.22 10.7 51.2 81 7.6 45.7 11.26 0.443
07:22 1025 30.27 854 25.22 10.8 51.4 81 7.7 45.9 11.35 0.447
07:23 1025 30.27 854 25.22 10.8 51.5 81 7.7 45.8 11.43 0.45
07:24 1025 30.27 854 25.22 10.9 51.7 81 7.8 46.1 11.52 0.454
07:25 1025 30.27 854 25.22 11 51.8 80 7.6 45.8 11.59 0.456
07:26 1025 30.27 854 25.22 11.1 51.9 80 7.7 45.8 11.59 0.456
07:27 1025 30.27 854 25.22 11.2 52.1 79 7.6 45.7 11.7 0.461
07:28 1025 30.27 854 25.22 11.2 52.2 79 7.7 45.9 11.71 0.461
07:29 1025 30.27 854 25.22 11.3 52.3 78 7.7 45.8 11.77 0.463
07:30 1025 30.27 854 25.22 11.4 52.4 80 8 46.4 11.81 0.465
07:31 1025 30.27 854 25.22 11.5 52.6 78 7.7 45.9 11.95 0.47
07:32 1025 30.27 854 25.22 11.6 52.8 79 8.1 46.6 12.14 0.478
07:33 1025 30.27 854 25.22 11.8 53.2 79 8.3 47 12.35 0.486
07:34 1025 30.27 854 25.22 11.9 53.4 76 7.7 45.9 12.52 0.493
07:35 1025 30.27 854 25.22 11.9 53.5 75 7.7 45.9 12.57 0.495
07:36 1025 30.27 854 25.22 12 53.6 75 7.8 46.1 12.67 0.499
07:37 1025 30.27 854 25.22 12.1 53.7 74 7.5 45.6 12.78 0.503
07:38 1025 30.27 854 25.22 12.1 53.8 74 7.7 45.8 12.87 0.507
07:39 1025 30.27 854 25.22 12.2 53.9 72 7.3 45.2 12.96 0.51
07:40 1025 30.27 854 25.22 12.2 53.9 74 7.7 45.9 13.02 0.513
07:41 1025 30.27 854 25.22 12.3 54.1 75 7.9 46.3 13.1 0.516
07:42 1025 30.27 854 25.22 12.3 54.1 72 7.4 45.3 13.1 0.516
07:43 1025 30.27 854 25.22 12.3 54.1 73 7.7 45.8 13.11 0.516
07:44 1025 30.27 854 25.22 12.3 54.2 73 7.6 45.7 13.1 0.516
07:45 1025 30.27 854 25.22 12.4 54.3 73 7.8 46 13.17 0.519
07:46 1025 30.27 854 25.22 12.4 54.3 75 8.1 46.6 13.25 0.522
07:47 1025 30.27 854 25.22 12.5 54.4 74 8 46.4 13.31 0.524
07:48 1025 30.27 854 25.22 12.5 54.6 75 8.2 46.8 13.35 0.526
07:49 1025 30.27 854 25.22 12.6 54.7 77 8.6 47.5 13.44 0.529
07:50 1025 30.27 854 25.22 12.7 54.8 76 8.5 47.3 13.5 0.531
07:51 1025 30.27 854 25.22 12.8 55 77 8.8 47.9 13.53 0.533
07:52 1025 30.27 854 25.22 12.9 55.2 72 8.1 46.6 13.65 0.537
07:53 1025 30.27 854 25.22 12.9 55.3 75 8.7 47.7 13.66 0.538
07:54 1025 30.27 854 25.22 13 55.3 76 8.8 47.8 13.8 0.543
07:55 1025 30.27 854 25.22 13.1 55.6 74 8.5 47.3 13.93 0.548
07:56 1025 30.27 854 25.22 13.2 55.7 73 8.4 47.2 13.99 0.551
07:57 1025 30.27 854 25.22 13.2 55.7 71 8 46.4 13.93 0.548
07:58 1025 30.27 854 25.22 13.1 55.6 70 7.9 46.2 13.75 0.541
07:59 1025 30.27 854 25.22 13.1 55.5 71 8 46.3 13.71 0.54
08:00 1025 30.27 854 25.22 13.1 55.6 69 7.6 45.8 13.68 0.539
08:01 1025 30.27 854 25.22 13.2 55.7 71 8 46.5 13.71 0.54
08:02 1025 30.27 854 25.22 13.2 55.8 69 7.7 45.9 13.89 0.547
08:03 1025 30.27 854 25.22 13.2 55.8 72 8.3 46.9 13.94 0.549
08:04 1025 30.27 854 25.22 13.3 55.9 71 8.1 46.7 14.08 0.554
08:05 1025 30.27 854 25.22 13.4 56.1 72 8.5 47.4 14.2 0.559
08:06 1025 30.27 854 25.22 13.4 56.2 72 8.4 47.2 14.31 0.563
08:07 1025 30.27 854 25.22 13.5 56.3 71 8.4 47.1 14.41 0.567
08:08 1025 30.27 854 25.22 13.5 56.3 69 8 46.3 14.36 0.565
08:09 1025 30.27 854 25.22 13.5 56.3 71 8.3 46.9 14.41 0.567
08:10 1025 30.27 854 25.22 13.6 56.4 71 8.4 47.2 14.51 0.571
08:11 1025 30.27 854 25.22 13.6 56.5 71 8.4 47.1 14.6 0.575
08:12 1025 30.27 854 25.22 13.7 56.6 72 8.7 47.7 14.63 0.576
08:13 1025 30.27 854 25.22 13.7 56.7 70 8.5 47.3 14.68 0.578
08:14 1025 30.27 854 25.22 13.8 56.8 71 8.6 47.5 14.7 0.579
08:15 1025 30.27 854 25.22 13.9 57 68 8.2 46.8 14.81 0.583
08:16 1025 30.27 854 25.22 13.9 57.1 68 8.1 46.6 14.86 0.585
08:17 1025 30.27 854 25.22 14 57.1 68 8.3 46.9 14.91 0.587
08:18 1025 30.27 854 25.22 14.1 57.4 70 8.8 47.9 15.02 0.591
08:19 1025 30.27 854 25.22 14.2 57.5 67 8.1 46.6 15.15 0.596
08:20 1025 30.27 854 25.22 14.2 57.6 68 8.4 47.2 15.12 0.595
08:21 1025 30.27 854 25.22 14.3 57.8 69 8.8 47.9 15.25 0.6
08:22 1025 30.27 854 25.22 14.5 58.1 67 8.5 47.3 15.27 0.601
08:23 1025 30.27 854 25.22 14.6 58.3 66 8.4 47.1 15.35 0.604
08:24 1025 30.27 854 25.22 14.6 58.3 63 7.8 46.1 15.42 0.607
08:25 1025 30.27 854 25.22 14.6 58.3 65 8.1 46.6 15.5 0.61
08:26 1025 30.27 854 25.22 14.7 58.4 64 8 46.3 15.58 0.613
08:27 1025 30.27 854 25.22 14.7 58.4 62 7.4 45.4 15.61 0.615
08:28 1025 30.27 854 25.22 14.7 58.5 63 7.8 46.1 15.52 0.611
08:29 1025 30.27 854 25.22 14.8 58.7 62 7.6 45.7 15.49 0.61
08:30 1025 30.27 854 25.22 14.9 58.7 60 7.3 45.2 15.45 0.608
08:31 1025 30.27 854 25.22 14.9 58.8 61 7.5 45.5 15.55 0.612
08:32 1025 30.27 854 25.22 14.9 58.8 62 7.7 45.8 15.58 0.613
08:33 1025 30.27 854 25.22 15 58.9 61 7.6 45.6 15.62 0.615
08:34 1025 30.27 854 25.22 14.9 58.8 65 8.3 47 15.66 0.617
08:35 1025 30.27 854 25.22 14.8 58.7 63 8 46.4 15.63 0.615
08:36 1025 30.27 854 25.22 14.9 58.8 64 8.3 46.9 15.68 0.617
08:37 1025 30.27 854 25.22 14.9 58.9 60 7.3 45.1 15.69 0.618
08:38 1025 30.27 854 25.22 15 59 60 7.5 45.5 15.74 0.62
08:39 1025 30.27 854 25.22 14.9 58.8 62 7.7 45.9 15.65 0.616
08:40 1025 30.27 854 25.22 14.8 58.7 62 7.6 45.7 15.57 0.613
08:41 1025 30.27 854 25.22 15 58.9 61 7.5 45.5 15.63 0.615
08:42 1025 30.27 854 25.22 15.1 59.2 61 7.8 46.1 15.81 0.622
08:43 1025 30.27 854 25.22 15.3 59.6 61 7.9 46.3 15.99 0.63
08:44 1025 30.27 854 25.22 15.3 59.6 61 7.9 46.2 15.93 0.627
08:45 1025 30.27 854 25.22 15.3 59.5 62 8.1 46.6 15.83 0.623
08:46 1025 30.27 854 25.22 15.3 59.5 61 7.9 46.3 15.86 0.624
08:47 1025 30.27 854 25.22 15.3 59.6 63 8.4 47.1 16.02 0.631
08:48 1025 30.27 854 25.22 15.5 59.8 61 8.1 46.6 16.24 0.639
08:49 1025 30.27 854 25.22 15.6 60.2 60 7.9 46.2 16.4 0.646
08:50 1025 30.27 854 25.22 15.6 60 63 8.5 47.3 16.27 0.641
08:51 1025 30.27 854 25.22 15.5 59.9 64 8.8 47.8 16.21 0.638
08:52 1025 30.27 854 25.22 15.4 59.8 64 8.7 47.7 16.2 0.638
08:53 1025 30.27 854 25.22 15.5 59.8 62 8.3 47 16.19 0.637
08:54 1025 30.27 854 25.22 15.5 59.9 62 8.4 47.2 16.19 0.637
08:55 1025 30.27 854 25.22 15.6 60 63 8.5 47.4 16.19 0.637
08:56 1025 30.27 854 25.22 15.5 59.9 63 8.6 47.4 16.17 0.637
08:57 1025 30.27 854 25.22 15.5 59.8 63 8.5 47.4 16.16 0.636
08:58 1025 30.27 854 25.22 15.4 59.7 62 8.3 46.9 16.07 0.633
08:59 1025 30.27 854 25.22 15.4 59.7 63 8.5 47.3 16.07 0.633
09:00 1025 30.27 854 25.22 15.5 59.9 61 8.1 46.6 16.17 0.637
09:01 1025 30.27 854 25.22 15.6 60.1 62 8.3 47 16.28 0.641
09:02 1025 30.27 854 25.22 15.7 60.3 61 8.4 47.1 16.32 0.643
09:03 1025 30.27 854 25.22 15.7 60.3 61 8.3 47 16.29 0.641
09:04 1025 30.27 854 25.22 15.8 60.4 64 9 48.3 16.33 0.643
09:05 1025 30.27 854 25.22 15.8 60.4 63 8.7 47.7 16.31 0.642
09:06 1025 30.27 854 25.22 15.7 60.3 60 8.2 46.7 16.27 0.641
09:07 1025 30.27 854 25.22 15.8 60.5 60 8 46.5 16.34 0.643
09:08 1025 30.27 854 25.22 15.9 60.6 60 8.2 46.8 16.45 0.648
09:09 1025 30.27 854 25.22 16 60.9 60 8.3 46.9 16.54 0.651
09:10 1025 30.27 854 25.22 16.2 61.1 58 8 46.5 16.65 0.656
09:11 1025 30.27 854 25.22 16.2 61.1 60 8.5 47.4 16.7 0.657
09:12 1025 30.27 854 25.22 16.3 61.4 58 8.2 46.8 16.84 0.663
09:13 1025 30.27 854 25.22 16.4 61.5 62 9.1 48.4 16.93 0.667
09:14 1025 30.27 854 25.22 16.5 61.7 59 8.6 47.6 17.03 0.67
09:15 1025 30.27 854 25.22 16.5 61.7 60 8.8 47.8 17.06 0.672
09:16 1025 30.27 854 25.22 16.5 61.6 59 8.4 47.1 17.03 0.67
09:17 1025 30.27 854 25.22 16.6 61.9 59 8.5 47.4 17.17 0.676
09:18 1025 30.27 854 25.22 16.7 62.1 56 8 46.5 17.24 0.679
09:19 1025 30.27 854 25.22 16.6 61.9 57 8.1 46.6 17.1 0.673
09:20 1025 30.27 854 25.22 16.6 61.8 57 8.2 46.7 17.04 0.671
09:21 1025 30.27 854 25.22 16.5 61.8 57 8.1 46.6 17 0.669
09:22 1025 30.27 854 25.22 16.6 61.8 57 8.2 46.8 17.05 0.671
09:23 1025 30.27 854 25.22 16.6 61.9 56 8 46.4 17.09 0.673
09:24 1025 30.27 854 25.22 16.6 61.9 60 8.9 48.1 17.15 0.675
09:25 1025 30.27 854 25.22 16.8 62.2 55 7.7 45.8 17.26 0.68
09:26 1025 30.27 854 25.22 16.9 62.4 56 8.2 46.8 17.37 0.684
09:27 1025 30.27 854 25.22 17.1 62.8 55 8 46.4 17.56 0.691
09:28 1025 30.27 854 25.22 17.3 63.1 54 8 46.4 17.76 0.699
09:29 1025 30.27 854 25.22 17.4 63.4 54 8.1 46.6 17.96 0.707
09:30 1025 30.27 854 25.22 17.5 63.6 53 8 46.3 18.09 0.712
09:31 1025 30.27 854 25.22 17.5 63.5 54 8.3 46.9 18.07 0.711
09:32 1025 30.27 854 25.22 17.6 63.6 55 8.5 47.4 18.09 0.712
09:33 1025 30.27 854 25.22 17.7 63.8 54 8.2 46.8 18.06 0.711
09:34 1025 30.27 854 25.22 17.7 63.8 52 7.8 46 18.08 0.712
09:35 1025 30.27 854 25.22 17.7 63.9 54 8.3 47 18.24 0.718
09:36 1025 30.27 854 25.22 17.9 64.1 52 8.1 46.5 18.29 0.72
09:37 1025 30.27 854 25.22 17.9 64.3 57 9.3 48.7 18.26 0.719
09:38 1025 30.27 854 25.22 18 64.4 52 8 46.4 18.27 0.719
09:39 1025 30.27 854 25.22 18 64.3 51 7.9 46.2 18.12 0.713
09:40 1025 30.27 854 25.22 18 64.3 53 8.2 46.8 18.07 0.711
09:41 1025 30.27 854 25.22 18 64.4 52 8.2 46.8 18.15 0.715
09:42 1025 30.27 854 25.22 18.1 64.6 52 8.2 46.8 18.2 0.717
09:43 1025 30.27 854 25.22 18 64.5 54 8.6 47.4 18.04 0.71
09:44 1025 30.27 854 25.22 18 64.3 55 8.9 48.1 18 0.709
09:45 1025 30.27 854 25.22 18 64.3 54 8.7 47.7 18.12 0.713
09:46 1025 30.27 854 25.22 18 64.3 53 8.2 46.8 18.13 0.714
09:47 1025 30.27 854 25.22 17.8 64.1 53 8.4 47 18.12 0.713
09:48 1025 30.27 854 25.22 17.7 63.8 53 8.1 46.6 18.11 0.713
09:49 1025 30.27 854 25.22 17.6 63.7 54 8.4 47.1 18.19 0.716
09:50 1025 30.27 854 25.22 17.8 64 50 7.5 45.4 18.34 0.722
09:51 1025 30.27 854 25.22 17.8 64 52 7.9 46.2 18.08 0.712
09:52 1025 30.27 854 25.22 17.7 63.8 56 8.8 47.9 18.05 0.711
09:53 1025 30.27 854 25.22 17.7 63.9 53 8.1 46.6 18.11 0.713
09:54 1025 30.27 854 25.22 17.9 64.2 53 8.3 47 18.1 0.713
09:55 1025 30.27 854 25.22 17.9 64.3 51 7.7 45.9 18.11 0.713
09:56 1025 30.27 854 25.22 17.9 64.2 52 8 46.4 18.08 0.712
09:57 1025 30.27 854 25.22 17.9 64.1 53 8.2 46.8 18.24 0.718
09:58 1025 30.27 854 25.22 18 64.4 51 7.9 46.2 18.47 0.727
09:59 1025 30.27 854 25.22 18.1 64.6 51 7.8 46.1 18.52 0.729
10:00 1025 30.27 854 25.22 18.1 64.7 49 7.3 45.1 18.51 0.729
10:01 1025 30.27 854 25.22 18.1 64.7 53 8.6 47.5 18.41 0.725
10:02 1025 30.27 854 25.22 18.2 64.7 53 8.6 47.4 18.45 0.726
10:03 1025 30.27 854 25.22 18.1 64.6 49 7.3 45.1 18.45 0.726
10:04 1025 30.27 854 25.22 18.2 64.7 52 8.2 46.8 18.46 0.727
10:05 1025 30.27 854 25.22 18.3 64.9 49 7.5 45.4 18.57 0.731
10:06 1025 30.27 854 25.22 18.4 65.1 50 8 46.3 18.5 0.728
10:07 1025 30.27 854 25.22 18.4 65.2 50 7.8 46.1 18.49 0.728
10:08 1025 30.27 854 25.22 18.6 65.4 48 7.6 45.6 18.61 0.733
10:09 1025 30.27 854 25.22 18.7 65.6 48 7.6 45.7 18.79 0.74
10:10 1025 30.27 854 25.22 18.8 65.8 48 7.6 45.6 18.78 0.739
10:11 1025 30.27 854 25.22 18.9 65.9 47 7.6 45.6 18.78 0.739
10:12 1025 30.27 854 25.22 18.9 66.1 49 8.2 46.7 19.03 0.749
10:13 1025 30.27 854 25.22 19.1 66.4 50 8.7 47.7 19.11 0.752
10:14 1025 30.27 854 25.22 19.1 66.4 48 8 46.4 19.2 0.756
10:15 1025 30.27 854 25.22 19.2 66.5 47 7.7 45.8 19.29 0.759
10:16 1025 30.27 854 25.22 19.2 66.6 47 7.8 46 19.3 0.76
10:17 1025 30.27 854 25.22 19.2 66.6 48 8.2 46.8 19.21 0.756
10:18 1025 30.27 854 25.22 19 66.3 48 7.8 46.1 19.26 0.758
10:19 1025 30.27 854 25.22 18.9 66 48 7.9 46.2 19.27 0.759
10:20 1025 30.27 854 25.22 18.7 65.7 49 7.9 46.2 19.26 0.758
10:21 1025 30.27 854 25.22 18.8 65.9 52 8.8 47.9 19.26 0.758
10:22 1025 30.27 854 25.22 19 66.1 47 7.5 45.6 19.15 0.754
10:23 1025 30.27 854 25.22 18.8 65.9 49 7.9 46.2 18.9 0.744
10:24 1025 30.27 854 25.22 18.7 65.6 48 7.7 45.9 18.81 0.741
10:25 1025 30.27 854 25.22 18.7 65.7 49 8 46.4 18.99 0.748
10:26 1025 30.27 854 25.22 18.9 66 49 8 46.4 19.19 0.756
10:27 1025 30.27 854 25.22 18.9 66.1 51 8.8 47.8 19.28 0.759
10:28 1025 30.27 854 25.22 19.1 66.3 48 8 46.4 19.4 0.764
10:29 1025 30.27 854 25.22 19.1 66.4 51 8.8 47.8 19.19 0.756
10:30 1025 30.27 854 25.22 19 66.3 50 8.5 47.4 19.11 0.752
10:31 1025 30.27 854 25.22 19 66.3 48 7.8 46.1 19.21 0.756
10:32 1025 30.27 854 25.22 19.1 66.3 50 8.4 47.1 19.28 0.759
10:33 1025 30.27 854 25.22 19 66.2 50 8.4 47.2 19.25 0.758
10:34 1025 30.27 854 25.22 19 66.2 50 8.5 47.3 19.18 0.755
10:35 1025 30.27 854 25.22 19 66.3 48 7.8 46 19.21 0.756
10:36 1025 30.27 854 25.22 19 66.2 45 7 44.7 19.11 0.752
10:37 1025 30.27 854 25.22 18.9 66.1 47 7.6 45.7 19.07 0.751
10:38 1025 30.27 854 25.22 18.9 66.1 51 8.6 47.5 19.17 0.755
10:39 1025 30.27 854 25.22 19 66.2 49 8 46.5 19.25 0.758
10:40 1025 30.27 854 25.22 19 66.2 49 8.3 47 19.25 0.758
10:41 1025 30.27 854 25.22 19.1 66.3 47 7.5 45.5 19.22 0.757
10:42 1025 30.27 854 25.22 19 66.3 54 9.6 49.3 19.11 0.752
10:43 1025 30.27 854 25.22 19 66.3 50 8.4 47.1 19.12 0.753
10:44 1025 30.27 854 25.22 18.9 66 53 9.3 48.8 18.94 0.746
10:45 1025 30.27 854 25.22 18.8 65.9 51 8.5 47.3 18.92 0.745
10:46 1025 30.27 854 25.22 18.8 65.9 47 7.5 45.6 18.85 0.742
10:47 1025 30.27 854 25.22 18.8 65.8 49 8 46.4 18.8 0.74
10:48 1025 30.27 854 25.22 18.8 65.8 47 7.4 45.3 18.91 0.744
10:49 1025 30.27 854 25.22 18.9 66 49 8 46.4 19.02 0.749
10:50 1025 30.27 854 25.22 19 66.2 49 8.3 47 19.23 0.757
10:51 1025 30.27 854 25.22 19.1 66.3 47 7.7 45.8 19.22 0.757
10:52 1025 30.27 854 25.22 19 66.2 47 7.7 45.8 19.09 0.752
10:53 1025 30.27 854 25.22 19.1 66.3 48 7.9 46.1 19.11 0.752
10:54 1025 30.27 854 25.22 19.1 66.3 49 8.3 46.9 19.12 0.753
10:55 1025 30.27 854 25.22 19.1 66.4 49 8.2 46.7 19.12 0.753
10:56 1025 30.27 854 25.22 19.2 66.5 49 8.2 46.8 19.18 0.755
10:57 1025 30.27 854 25.22 19.2 66.6 49 8.3 46.9 19.23 0.757
10:58 1025 30.27 854 25.22 19.2 66.6 53 9.6 49.2 19.32 0.761
10:59 1025 30.27 854 25.22 19.4 66.8 46 7.7 45.9 19.41 0.764
11:00 1025 30.27 854 25.22 19.4 66.8 46 7.4 45.4 19.39 0.763
11:01 1025 30.27 854 25.22 19.2 66.6 46 7.4 45.3 19.24 0.757
11:02 1025 30.27 854 25.22 19.1 66.5 51 8.8 47.8 19.19 0.756
11:03 1025 30.27 854 25.22 19.1 66.4 47 7.7 45.9 19.25 0.758
11:04 1025 30.27 854 25.22 19.2 66.5 50 8.8 47.8 19.24 0.757
11:05 1025 30.27 854 25.22 19.1 66.4 47 7.8 46 19.21 0.756
11:06 1025 30.27 854 25.22 19.2 66.5 49 8.4 47.1 19.19 0.756
11:07 1025 30.27 854 25.22 19.2 66.5 49 8.3 46.9 19.21 0.756
11:08 1025 30.27 854 25.22 19.2 66.6 47 7.7 45.9 19.3 0.76
11:09 1025 30.27 854 25.22 19.3 66.7 45 7.1 44.8 19.31 0.76
11:10 1025 30.27 854 25.22 19.2 66.6 49 8.5 47.3 19.29 0.759
11:11 1025 30.27 854 25.22 19.3 66.7 46 7.6 45.6 19.36 0.762
11:12 1025 30.27 854 25.22 19.3 66.7 46 7.5 45.5 19.37 0.763
11:13 1025 30.27 854 25.22 19.4 66.9 44 7.1 44.8 19.43 0.765
11:14 1025 30.27 854 25.22 19.5 67 47 8 46.5 19.58 0.771
11:15 1025 30.27 854 25.22 19.6 67.3 47 8.2 46.7 19.74 0.777
11:16 1025 30.27 854 25.22 19.6 67.3 50 9.1 48.4 19.64 0.773
11:17 1025 30.27 854 25.22 19.5 67.1 49 8.7 47.7 19.64 0.773
11:18 1025 30.27 854 25.22 19.5 67.1 48 8.4 47 19.59 0.771
11:19 1025 30.27 854 25.22 19.6 67.2 50 8.9 48 19.56 0.77
11:20 1025 30.27 854 25.22 19.6 67.2 52 9.7 49.4 19.6 0.772
11:21 1025 30.27 854 25.22 19.6 67.3 47 8.1 46.6 19.71 0.776
11:22 1025 30.27 854 25.22 19.7 67.4 52 9.8 49.6 19.74 0.777
11:23 1025 30.27 854 25.22 19.7 67.4 47 8.1 46.6 19.68 0.775
11:24 1025 30.27 854 25.22 19.7 67.4 49 8.7 47.7 19.66 0.774
11:25 1025 30.27 854 25.22 19.6 67.3 48 8.5 47.4 19.65 0.774
11:26 1025 30.27 854 25.22 19.7 67.4 49 8.8 47.8 19.7 0.776
11:27 1025 30.27 854 25.22 19.6 67.3 47 8 46.4 19.7 0.776
11:28 1025 30.27 854 25.22 19.6 67.3 45 7.4 45.3 19.66 0.774
11:29 1025 30.27 854 25.22 19.7 67.4 44 7.2 45 19.7 0.776
11:30 1025 30.27 854 25.22 19.7 67.5 47 8.2 46.8 19.77 0.778
11:31 1025 30.27 854 25.22 19.8 67.6 46 7.8 46.1 19.82 0.78
11:32 1025 30.27 854 25.22 19.8 67.6 52 9.7 49.5 19.9 0.783
11:33 1025 30.27 854 25.22 19.9 67.8 46 8.2 46.8 20.12 0.792
11:34 1025 30.27 854 25.22 20 68.1 43 7.3 45.1 20.14 0.793
11:35 1025 30.27 854 25.22 20 68.1 47 8.4 47.1 20.06 0.79
11:36 1025 30.27 854 25.22 20 68 48 8.7 47.7 20.14 0.793
11:37 1025 30.27 854 25.22 20.1 68.2 44 7.7 45.9 20.29 0.799
11:38 1025 30.27 854 25.22 20.2 68.3 45 8.1 46.6 20.37 0.802
11:39 1025 30.27 854 25.22 20.1 68.2 42 7 44.6 20.29 0.799
11:40 1025 30.27 854 25.22 20.1 68.2 43 7.4 45.3 20.23 0.796
11:41 1025 30.27 854 25.22 20.2 68.3 46 8.5 47.2 20.34 0.801
11:42 1025 30.27 854 25.22 20.4 68.6 49 9.6 49.2 20.6 0.811
11:43 1025 30.27 854 25.22 20.5 68.9 44 8.1 46.5 20.66 0.813
11:44 1025 30.27 854 25.22 20.4 68.7 45 8.3 46.9 20.54 0.809
11:45 1025 30.27 854 25.22 20.4 68.7 46 8.6 47.5 20.47 0.806
11:46 1025 30.27 854 25.22 20.3 68.6 44 7.7 45.8 20.35 0.801
11:47 1025 30.27 854 25.22 20.3 68.5 48 9 48.2 20.35 0.801
11:48 1025 30.27 854 25.22 20.3 68.5 45 8.1 46.6 20.44 0.805
11:49 1025 30.27 854 25.22 20.3 68.5 46 8.4 47.1 20.48 0.806
11:50 1025 30.27 854 25.22 20.2 68.3 43 7.4 45.4 20.44 0.805
11:51 1025 30.27 854 25.22 20.2 68.4 44 7.7 45.9 20.5 0.807
11:52 1025 30.27 854 25.22 20.3 68.6 48 9 48.2 20.64 0.813
11:53 1025 30.27 854 25.22 20.5 68.9 44 7.9 46.3 20.75 0.817
11:54 1025 30.27 854 25.22 20.6 69.1 45 8.4 47.1 20.78 0.818
11:55 1025 30.27 854 25.22 20.5 68.9 41 7.1 44.7 20.64 0.813
11:56 1025 30.27 854 25.22 20.4 68.6 45 8.3 46.9 20.55 0.809
11:57 1025 30.27 854 25.22 20.3 68.5 47 8.6 47.5 20.57 0.81
11:58 1025 30.27 854 25.22 20.3 68.5 45 8 46.3 20.61 0.811
11:59 1025 30.27 854 25.22 20.4 68.7 44 7.8 46 20.59 0.811
12:00 1025 30.27 854 25.22 20.4 68.7 46 8.4 47.1 20.6 0.811
12:01 1025 30.27 854 25.22 20.4 68.7 46 8.6 47.5 20.57 0.81
12:02 1025 30.27 854 25.22 20.4 68.8 51 10 50.1 20.64 0.813
12:03 1025 30.27 854 25.22 20.5 69 50 9.9 49.8 20.77 0.818
12:04 1025 30.27 854 25.22 20.7 69.2 50 9.9 49.9 20.82 0.82
12:05 1025 30.27 854 25.22 20.7 69.2 46 8.7 47.7 20.83 0.82
12:06 1025 30.27 854 25.22 20.7 69.3 47 9.2 48.5 20.8 0.819
12:07 1025 30.27 854 25.22 20.7 69.2 44 8.2 46.8 20.8 0.819
12:08 1025 30.27 854 25.22 20.7 69.2 47 9.1 48.3 20.93 0.824
12:09 1025 30.27 854 25.22 20.8 69.4 45 8.5 47.3 21.1 0.831
12:10 1025 30.27 854 25.22 20.8 69.5 51 10.5 51 21.22 0.835
12:11 1025 30.27 854 25.22 20.9 69.7 48 9.7 49.5 21.28 0.838
12:12 1025 30.27 854 25.22 21.1 70 49 10 50.1 21.5 0.846
12:13 1025 30.27 854 25.22 21.3 70.3 45 9.2 48.5 21.63 0.852
12:14 1025 30.27 854 25.22 21.3 70.3 46 9.2 48.6 21.58 0.85
12:15 1025 30.27 854 25.22 21.2 70.2 50 10.5 50.8 21.46 0.845
12:16 1025 30.27 854 25.22 21.1 70 50 10.4 50.7 21.35 0.841
12:17 1025 30.27 854 25.22 21.2 70.1 44 8.7 47.6 21.27 0.837
12:18 1025 30.27 854 25.22 21.1 70 48 10 50 21.25 0.837
12:19 1025 30.27 854 25.22 21.2 70.1 48 9.8 49.7 21.32 0.839
12:20 1025 30.27 854 25.22 21.1 70.1 45 8.8 47.8 21.41 0.843
12:21 1025 30.27 854 25.22 21.2 70.1 49 10.1 50.3 21.29 0.838
12:22 1025 30.27 854 25.22 21.1 70.1 47 9.5 49.2 21.29 0.838
12:23 1024 30.24 854 25.22 21.1 70 44 8.5 47.3 21.32 0.839
12:24 1024 30.24 854 25.22 21.1 69.9 50 10.5 51 21.29 0.838
12:25 1024 30.24 854 25.22 21.1 69.9 45 8.7 47.6 21.29 0.838
12:26 1024 30.24 854 25.22 21.1 69.9 43 8.3 47 21.28 0.838
12:27 1024 30.24 854 25.22 21.1 70 46 9.4 48.8 21.35 0.841
12:28 1024 30.24 854 25.22 21.2 70.2 45 9.1 48.3 21.45 0.844
12:29 1024 30.24 854 25.22 21.2 70.1 48 10 50 21.45 0.844
12:30 1024 30.24 854 25.22 21.2 70.2 44 8.7 47.6 21.54 0.848
12:31 1024 30.24 854 25.22 21.2 70.1 46 9.1 48.4 21.51 0.847
12:32 1025 30.27 854 25.22 21.2 70.1 50 10.6 51.1 21.56 0.849
12:33 1025 30.27 854 25.22 21.4 70.6 45 9.2 48.6 21.73 0.856
12:34 1024 30.24 854 25.22 21.5 70.6 46 9.5 49.1 21.74 0.856
12:35 1024 30.24 854 25.22 21.6 70.8 44 8.9 48 21.85 0.86
12:36 1024 30.24 854 25.22 21.6 70.9 46 9.6 49.3 21.94 0.864
12:37 1024 30.24 854 25.22 21.6 70.9 41 8.1 46.6 21.89 0.862
12:38 1024 30.24 854 25.22 21.5 70.8 39 7.2 44.9 21.9 0.862
12:39 1024 30.24 854 25.22 21.5 70.6 47 9.8 49.6 21.82 0.859
12:40 1024 30.24 854 25.22 21.4 70.6 44 8.9 48.1 21.8 0.858
12:41 1024 30.24 854 25.22 21.6 70.8 46 9.6 49.3 21.91 0.863
12:42 1024 30.24 854 25.22 21.7 71.1 39 7.3 45.1 21.98 0.865
12:43 1024 30.24 854 25.22 21.7 71.1 40 7.6 45.6 21.99 0.866
12:44 1024 30.24 854 25.22 21.7 71.1 42 8.3 47 22 0.866
12:45 1024 30.24 854 25.22 21.7 71 42 8.2 46.8 21.92 0.863
12:46 1024 30.24 854 25.22 21.7 71 39 7.3 45.1 21.94 0.864
12:47 1024 30.24 854 25.22 21.6 70.9 47 10.1 50.2 21.94 0.864
12:48 1024 30.24 854 25.22 21.6 70.9 43 8.5 47.4 22.01 0.867
12:49 1024 30.24 854 25.22 21.7 71 42 8.4 47.1 22.06 0.869
12:50 1024 30.24 854 25.22 21.8 71.2 45 9.5 49.1 22.25 0.876
12:51 1024 30.24 854 25.22 21.9 71.5 46 9.9 49.9 22.29 0.878
12:52 1024 30.24 854 25.22 21.9 71.4 47 10.1 50.2 22.25 0.876
12:53 1024 30.24 854 25.22 21.9 71.4 46 9.8 49.6 22.26 0.876
12:54 1024 30.24 854 25.22 22 71.5 43 8.9 48 22.3 0.878
12:55 1024 30.24 854 25.22 22.1 71.8 39 7.9 46.1 22.46 0.884
12:56 1024 30.24 854 25.22 22.4 72.2 35 6.5 43.7 22.63 0.891
12:57 1024 30.24 854 25.22 22.4 72.3 37 7.1 44.8 22.55 0.888
12:58 1024 30.24 854 25.22 22.3 72.1 39 7.8 46.1 22.56 0.888
12:59 1024 30.24 854 25.22 22.2 72 32 5.1 41.2 22.57 0.889
13:00 1024 30.24 853 25.19 22.2 72 33 5.3 41.6 22.48 0.885
13:01 1024 30.24 853 25.19 22.2 71.9 38 7.5 45.5 22.54 0.887
13:02 1024 30.24 853 25.19 22.3 72.1 44 9.5 49.1 22.65 0.892
13:03 1024 30.24 853 25.19 22.4 72.3 33 5.5 42 22.79 0.897
13:04 1024 30.24 853 25.19 22.5 72.6 39 8.2 46.8 22.77 0.896
13:05 1024 30.24 853 25.19 22.6 72.6 40 8.4 47.1 22.89 0.901
13:06 1024 30.24 853 25.19 22.6 72.6 39 8.3 46.9 22.82 0.898
13:07 1024 30.24 853 25.19 22.4 72.3 40 8.3 47 22.68 0.893
13:08 1024 30.24 853 25.19 22.2 72 40 8.1 46.5 22.48 0.885
13:09 1024 30.24 853 25.19 22.2 72 39 7.9 46.2 22.53 0.887
13:10 1024 30.24 853 25.19 22.2 72 38 7.3 45.1 22.52 0.887
13:11 1024 30.24 853 25.19 22.2 72 34 6 42.8 22.39 0.881
13:12 1024 30.24 853 25.19 22.1 71.8 43 9.3 48.7 22.29 0.878
13:13 1024 30.24 853 25.19 22.1 71.9 41 8.3 46.9 22.41 0.882
13:14 1024 30.24 853 25.19 22.2 71.9 39 7.8 46 22.42 0.883
13:15 1024 30.24 853 25.19 22.2 72 38 7.4 45.3 22.59 0.889
13:16 1024 30.24 853 25.19 22.4 72.2 34 5.9 42.7 22.66 0.892
13:17 1024 30.24 853 25.19 22.4 72.3 32 5 41 22.59 0.889
13:18 1024 30.24 853 25.19 22.3 72.1 34 5.7 42.3 22.43 0.883
13:19 1024 30.24 853 25.19 22.2 72 41 8.4 47.1 22.48 0.885
13:20 1024 30.24 853 25.19 22.3 72.1 37 7.2 45 22.64 0.891
13:21 1024 30.24 853 25.19 22.4 72.2 36 6.7 44.1 22.69 0.893
13:22 1024 30.24 853 25.19 22.3 72.1 35 6.2 43.1 22.57 0.889
13:23 1024 30.24 853 25.19 22.3 72.1 33 5.6 42.2 22.65 0.892
13:24 1024 30.24 853 25.19 22.4 72.3 37 7.3 45.2 22.7 0.894
13:25 1024 30.24 853 25.19 22.5 72.4 35 6.5 43.7 22.76 0.896
13:26 1024 30.24 853 25.19 22.5 72.5 35 6.3 43.4 22.81 0.898
13:27 1024 30.24 853 25.19 22.5 72.6 34 6.3 43.3 22.85 0.9
13:28 1024 30.24 853 25.19 22.5 72.5 38 7.7 45.8 22.81 0.898
13:29 1024 30.24 853 25.19 22.5 72.5 33 5.8 42.4 22.86 0.9
13:30 1024 30.24 853 25.19 22.6 72.7 41 9 48.2 22.93 0.903
13:31 1024 30.24 853 25.19 22.7 72.9 39 8.3 47 23.11 0.91
13:32 1024 30.24 853 25.19 22.9 73.2 40 8.7 47.7 23.24 0.915
13:33 1024 30.24 853 25.19 23 73.4 40 9 48.1 23.29 0.917
13:34 1024 30.24 853 25.19 23.1 73.5 34 6.5 43.6 23.27 0.916
13:35 1024 30.24 853 25.19 23 73.4 40 8.9 48.1 23.18 0.913
13:36 1024 30.24 853 25.19 23 73.4 34 6.7 44.1 23.18 0.913
13:37 1024 30.24 853 25.19 22.9 73.3 39 8.4 47.1 22.99 0.905
13:38 1024 30.24 853 25.19 22.9 73.2 34 6.4 43.6 22.96 0.904
13:39 1024 30.24 853 25.19 22.8 73.1 34 6.2 43.1 22.93 0.903
13:40 1024 30.24 853 25.19 22.8 73.1 40 8.7 47.6 23.02 0.906
13:41 1024 30.24 853 25.19 22.9 73.3 32 5.7 42.3 23.16 0.912
13:42 1024 30.24 853 25.19 23 73.3 43 10 49.9 23.28 0.917
13:43 1024 30.24 853 25.19 23.1 73.5 36 7.3 45.2 23.34 0.919
13:44 1024 30.24 853 25.19 23.1 73.6 31 5.5 41.8 23.28 0.917
13:45 1024 30.24 853 25.19 23 73.3 35 7.1 44.7 23.18 0.913
13:46 1024 30.24 853 25.19 22.9 73.2 36 7.3 45.2 23.2 0.913
13:47 1024 30.24 853 25.19 22.9 73.2 34 6.6 43.9 23.15 0.911
13:48 1024 30.24 853 25.19 22.9 73.2 38 8 46.4 23.03 0.907
13:49 1024 30.24 853 25.19 22.8 73 45 10.4 50.7 22.99 0.905
13:50 1024 30.24 853 25.19 22.9 73.1 36 7 44.7 23.12 0.91
13:51 1024 30.24 853 25.19 22.9 73.3 31 5.3 41.6 23.14 0.911
13:52 1024 30.24 853 25.19 22.9 73.2 34 6.6 43.8 23.11 0.91
13:53 1024 30.24 853 25.19 22.9 73.2 39 8.5 47.3 23.16 0.912
13:54 1024 30.24 853 25.19 23 73.4 34 6.6 43.9 23.26 0.916
13:55 1024 30.24 853 25.19 23 73.4 34 6.6 43.9 23.08 0.909
13:56 1024 30.24 853 25.19 22.9 73.3 33 6 42.8 23.09 0.909
13:57 1024 30.24 853 25.19 23 73.3 38 7.9 46.3 23.11 0.91
13:58 1024 30.24 853 25.19 23.1 73.6 38 8.1 46.5 23.21 0.914
13:59 1024 30.24 853 25.19 23.1 73.5 33 6.1 42.9 23.26 0.916
14:00 1024 30.24 853 25.19 23.1 73.5 36 7.3 45.2 23.19 0.913
14:01 1024 30.24 853 25.19 23.1 73.5 33 5.9 42.7 23.19 0.913
14:02 1024 30.24 853 25.19 23.1 73.5 38 8.4 47 23.2 0.913
14:03 1024 30.24 853 25.19 23 73.5 33 6.3 43.3 23.2 0.913
14:04 1024 30.24 853 25.19 23 73.3 32 5.4 41.8 23.07 0.908
14:05 1024 30.24 853 25.19 22.9 73.1 36 7.1 44.9 23.02 0.906
14:06 1024 30.24 853 25.19 22.8 73 36 7.3 45.1 23.02 0.906
14:07 1024 30.24 853 25.19 22.7 72.8 34 6.2 43.2 22.89 0.901
14:08 1024 30.24 853 25.19 22.6 72.7 32 5.3 41.6 22.82 0.898
14:09 1024 30.24 853 25.19 22.5 72.5 45 10.1 50.2 22.79 0.897
14:10 1024 30.24 853 25.19 22.7 72.9 41 8.9 47.9 23.08 0.909
14:11 1024 30.24 853 25.19 23 73.4 35 6.8 44.3 23.17 0.912
14:12 1024 30.24 853 25.19 23 73.5 39 8.5 47.3 23.22 0.914
14:13 1024 30.24 853 25.19 23.2 73.7 40 8.9 48.1 23.4 0.921
14:14 1024 30.24 853 25.19 23.3 73.9 37 8 46.5 23.43 0.922
14:15 1024 30.24 853 25.19 23.2 73.8 33 6.1 43 23.38 0.92
14:16 1024 30.24 853 25.19 23.1 73.5 36 7.3 45.1 23.38 0.92
14:17 1024 30.24 853 25.19 23.1 73.7 40 9 48.3 23.42 0.922
14:18 1024 30.24 853 25.19 23.2 73.7 33 6.2 43.1 23.46 0.924
14:19 1024 30.24 853 25.19 23.2 73.8 40 9 48.2 23.39 0.921
14:20 1024 30.24 853 25.19 23.3 73.9 39 8.7 47.7 23.53 0.926
14:21 1024 30.24 853 25.19 23.4 74.1 33 6.2 43.2 23.54 0.927
14:22 1024 30.24 853 25.19 23.5 74.2 33 6.3 43.4 23.54 0.927
14:23 1024 30.24 853 25.19 23.5 74.3 32 6.2 43.2 23.5 0.925
14:24 1024 30.24 853 25.19 23.5 74.3 33 6.7 44.1 23.53 0.926
14:25 1024 30.24 853 25.19 23.5 74.2 34 6.8 44.2 23.6 0.929
14:26 1024 30.24 853 25.19 23.4 74.1 34 7 44.6 23.52 0.926
14:27 1024 30.24 853 25.19 23.4 74.2 39 9 48.2 23.6 0.929
14:28 1024 30.24 853 25.19 23.6 74.5 35 7.5 45.5 23.82 0.938
14:29 1024 30.24 853 25.19 23.6 74.5 32 6.4 43.5 23.78 0.936
14:30 1024 30.24 853 25.19 23.6 74.4 39 8.9 48 23.73 0.934
14:31 1024 30.24 853 25.19 23.6 74.4 32 6.3 43.4 23.81 0.937
14:32 1024 30.24 853 25.19 23.5 74.2 37 8.2 46.7 23.74 0.935
14:33 1024 30.24 853 25.19 23.5 74.3 36 7.9 46.2 23.77 0.936
14:34 1024 30.24 853 25.19 23.5 74.3 35 7.3 45.2 23.74 0.935
14:35 1024 30.24 853 25.19 23.5 74.3 33 6.5 43.6 23.74 0.935
14:36 1024 30.24 853 25.19 23.4 74.1 31 5.7 42.3 23.73 0.934
14:37 1024 30.24 853 25.19 23.4 74.1 32 6.1 42.9 23.62 0.93
14:38 1024 30.24 853 25.19 23.3 74 30 5.1 41.3 23.44 0.923
14:39 1024 30.24 853 25.19 23.3 73.9 35 7.2 45 23.41 0.922
14:40 1024 30.24 853 25.19 23.4 74.1 36 7.5 45.5 23.61 0.93
14:41 1024 30.24 853 25.19 23.4 74.1 32 6.1 42.9 23.56 0.928
14:42 1024 30.24 853 25.19 23.4 74 32 6.1 42.9 23.45 0.923
14:43 1024 30.24 853 25.19 23.4 74.1 31 5.3 41.6 23.52 0.926
14:44 1024 30.24 853 25.19 23.4 74.2 32 6 42.7 23.53 0.926
14:45 1024 30.24 853 25.19 23.4 74.2 33 6.3 43.3 23.48 0.924
14:46 1024 30.24 853 25.19 23.4 74 37 7.9 46.2 23.53 0.926
14:47 1024 30.24 853 25.19 23.4 74 32 6 42.8 23.54 0.927
14:48 1024 30.24 853 25.19 23.3 73.9 31 5.2 41.4 23.5 0.925
14:49 1024 30.24 853 25.19 23.3 73.9 31 5.6 42.1 23.6 0.929
14:50 1024 30.24 853 25.19 23.4 74 39 8.7 47.6 23.72 0.934
14:51 1024 30.24 853 25.19 23.6 74.5 42 10.1 50.1 23.94 0.943
14:52 1024 30.24 853 25.19 23.8 74.9 31 6.1 43.1 24.21 0.953
14:53 1024 30.24 853 25.19 23.9 75 32 6.3 43.4 24.04 0.946
14:54 1024 30.24 853 25.19 23.8 74.8 33 6.9 44.4 23.98 0.944
14:55 1024 30.24 853 25.19 23.8 74.8 36 8.2 46.7 24.08 0.948
14:56 1024 30.24 853 25.19 23.9 75 39 9.3 48.8 24.2 0.953
14:57 1024 30.24 853 25.19 24 75.3 34 7.2 45 24.29 0.956
14:58 1024 30.24 853 25.19 24 75.1 33 6.8 44.2 24.14 0.95
14:59 1024 30.24 853 25.19 23.8 74.8 35 7.5 45.4 23.92 0.942
15:00 1024 30.24 853 25.19 23.6 74.4 35 7.6 45.7 23.73 0.934
15:01 1024 30.24 853 25.19 23.4 74.2 37 8 46.4 23.58 0.928
15:02 1024 30.24 853 25.19 23.4 74.1 33 6.4 43.5 23.56 0.928
15:03 1024 30.24 853 25.19 23.3 73.9 35 7 44.6 23.44 0.923
15:04 1024 30.24 853 25.19 23.2 73.8 32 5.8 42.4 23.37 0.92
15:05 1024 30.24 853 25.19 23.2 73.7 34 6.4 43.6 23.37 0.92
15:06 1024 30.24 853 25.19 23.1 73.6 41 9.3 48.7 23.42 0.922
15:07 1024 30.24 853 25.19 23.3 73.9 34 6.9 44.3 23.53 0.926
15:08 1024 30.24 853 25.19 23.3 73.9 38 8.4 47.1 23.56 0.928
15:09 1024 30.24 853 25.19 23.3 74 38 8.6 47.4 23.54 0.927
15:10 1024 30.24 853 25.19 23.3 73.9 34 6.6 43.9 23.47 0.924
15:11 1024 30.24 853 25.19 23.2 73.7 33 6.2 43.2 23.33 0.919
15:12 1024 30.24 853 25.19 23.1 73.6 35 7 44.5 23.33 0.919
15:13 1024 30.24 853 25.19 23 73.4 33 6 42.8 23.32 0.918
15:14 1024 30.24 853 25.19 23 73.3 38 8 46.3 23.32 0.918
15:15 1024 30.24 853 25.19 23 73.3 33 6.2 43.2 23.3 0.917
15:16 1024 30.24 853 25.19 22.9 73.3 34 6.6 43.9 23.26 0.916
15:17 1024 30.24 853 25.19 22.9 73.3 35 7 44.7 23.37 0.92
15:18 1024 30.24 853 25.19 23.1 73.5 30 4.7 40.4 23.45 0.923
15:19 1024 30.24 853 25.19 23 73.5 35 6.9 44.4 23.41 0.922
15:20 1024 30.24 853 25.19 23.1 73.5 32 5.7 42.3 23.49 0.925
15:21 1024 30.24 853 25.19 23.1 73.6 32 5.9 42.6 23.53 0.926
15:22 1024 30.24 853 25.19 23.2 73.8 34 6.8 44.2 23.6 0.929
15:23 1024 30.24 853 25.19 23.4 74.1 32 6.2 43.1 23.82 0.938
15:24 1024 30.24 853 25.19 23.6 74.5 30 5.3 41.5 23.91 0.941
15:25 1024 30.24 853 25.19 23.8 74.8 29 4.8 40.6 24.12 0.95
15:26 1024 30.24 853 25.19 23.8 74.9 31 6.1 43 24.19 0.952
15:27 1024 30.24 853 25.19 23.8 74.9 32 6.5 43.7 24.16 0.951
15:28 1024 30.24 853 25.19 23.8 74.8 32 6.3 43.3 24.25 0.955
15:29 1024 30.24 853 25.19 23.9 75 35 7.7 45.8 24.39 0.96
15:30 1024 30.24 853 25.19 24 75.3 29 5.3 41.6 24.48 0.964
15:31 1024 30.24 853 25.19 24.2 75.5 32 6.5 43.6 24.61 0.969
15:32 1024 30.24 853 25.19 24.4 75.8 31 6.3 43.4 24.79 0.976
15:33 1024 30.24 853 25.19 24.4 75.8 33 7.3 45.2 24.75 0.974
15:34 1024 30.24 853 25.19 24.5 76 34 7.8 46 24.81 0.977
15:35 1024 30.24 853 25.19 24.5 76.2 27 4.8 40.6 24.89 0.98
15:36 1024 30.24 853 25.19 24.5 76 30 6.2 43.2 24.88 0.98
15:37 1024 30.24 853 25.19 24.5 76.1 28 5.1 41.1 24.92 0.981
15:38 1024 30.24 853 25.19 24.4 75.9 30 6 42.8 24.79 0.976
15:39 1024 30.24 853 25.19 24.4 75.9 29 5.5 41.9 24.74 0.974
15:40 1024 30.24 853 25.19 24.4 75.9 30 5.9 42.5 24.61 0.969
15:41 1024 30.24 853 25.19 24.3 75.8 29 5.6 42.1 24.48 0.964
15:42 1024 30.24 853 25.19 24.2 75.5 29 5.4 41.7 24.39 0.96
15:43 1024 30.24 853 25.19 24.1 75.4 30 5.6 42.1 24.33 0.958
15:44 1024 30.24 853 25.19 24.2 75.5 30 5.8 42.5 24.35 0.959
15:45 1024 30.24 853 25.19 24.2 75.5 26 3.7 38.6 24.49 0.964
15:46 1024 30.24 853 25.19 24.2 75.5 26 3.5 38.3 24.53 0.966
15:47 1024 30.24 853 25.19 24 75.2 29 5 41 24.44 0.962
15:48 1024 30.24 853 25.19 23.9 75.1 33 6.7 44 24.37 0.959
15:49 1024 30.24 853 25.19 23.9 74.9 33 6.9 44.4 24.35 0.959
15:50 1024 30.24 853 25.19 23.8 74.8 30 5.5 41.9 24.23 0.954
15:51 1024 30.24 853 25.19 23.6 74.4 30 5.3 41.5 23.99 0.944
15:52 1024 30.24 853 25.19 23.4 74.1 29 4.8 40.6 23.83 0.938
15:53 1024 30.24 853 25.19 23.4 74.1 30 5 41.1 23.87 0.94
15:54 1024 30.24 853 25.19 23.5 74.3 34 7 44.7 23.94 0.943
15:55 1024 30.24 853 25.19 23.7 74.6 31 5.9 42.6 24.04 0.946
15:56 1024 30.24 853 25.19 23.9 75.1 31 6 42.9 24.16 0.951
15:57 1024 30.24 853 25.19 24.1 75.4 33 6.9 44.4 24.33 0.958
15:58 1024 30.24 853 25.19 24.3 75.7 32 6.9 44.5 24.58 0.968
15:59 1024 30.24 853 25.19 24.3 75.7 32 6.8 44.3 24.66 0.971
16:00 1024 30.24 853 25.19 24.3 75.8 28 5.1 41.3 24.69 0.972
16:01 1024 30.24 853 25.19 24.4 75.9 31 6.3 43.4 24.58 0.968
16:02 1024 30.24 853 25.19 24.3 75.8 29 5.5 41.9 24.6 0.969
16:03 1024 30.24 853 25.19 24.3 75.7 32 6.7 44 24.58 0.968
16:04 1024 30.24 853 25.19 24.3 75.8 32 6.7 44.1 24.74 0.974
16:05 1024 30.24 853 25.19 24.4 76 32 7 44.6 24.92 0.981
16:06 1024 30.24 853 25.19 24.6 76.2 27 4.7 40.4 24.97 0.983
16:07 1024 30.24 853 25.19 24.5 76.1 31 6.6 43.8 24.87 0.979
16:08 1024 30.24 853 25.19 24.6 76.2 31 6.8 44.2 24.99 0.984
16:09 1024 30.24 853 25.19 24.6 76.3 32 7.3 45.1 25.02 0.985
16:10 1024 30.24 853 25.19 24.7 76.4 30 6.1 42.9 25.1 0.988
16:11 1024 30.24 853 25.19 24.8 76.6 32 7.1 44.7 25.19 0.992
16:12 1024 30.24 853 25.19 24.8 76.7 30 6.2 43.2 25.19 0.992
16:13 1024 30.24 853 25.19 24.8 76.6 29 5.8 42.4 25.12 0.989
16:14 1024 30.24 853 25.19 24.6 76.4 27 4.9 40.8 25.05 0.986
16:15 1024 30.24 853 25.19 24.6 76.4 28 5.2 41.4 24.99 0.984
16:16 1024 30.24 853 25.19 24.6 76.2 31 6.6 43.8 24.97 0.983
16:17 1024 30.24 853 25.19 24.5 76.1 32 6.8 44.2 24.96 0.983
16:18 1024 30.24 853 25.19 24.6 76.3 30 6.3 43.3 25.05 0.986
16:19 1024 30.24 853 25.19 24.7 76.4 30 6.3 43.3 25.19 0.992
16:20 1024 30.24 853 25.19 24.8 76.7 30 6.5 43.8 25.32 0.997
16:21 1024 30.24 853 25.19 24.9 76.8 29 6.1 43 25.32 0.997
16:22 1024 30.24 853 25.19 24.9 76.8 28 5.6 42.1 25.23 0.993
16:23 1024 30.24 853 25.19 24.9 76.7 31 6.8 44.3 25.2 0.992
16:24 1024 30.24 853 25.19 24.9 76.8 29 5.8 42.5 25.22 0.993
16:25 1024 30.24 853 25.19 24.9 76.8 28 5.2 41.3 25.16 0.991
16:26 1024 30.24 853 25.19 25 77 29 6.1 43 25.24 0.994
16:27 1024 30.24 853 25.19 25.1 77.1 33 7.9 46.2 25.32 0.997
16:28 1024 30.24 853 25.19 25.2 77.3 29 6.2 43.2 25.48 1.003
16:29 1024 30.24 853 25.19 25.2 77.4 25 4.3 39.7 25.49 1.004
16:30 1024 30.24 853 25.19 25 77 32 7.3 45.1 25.35 0.998
16:31 1024 30.24 853 25.19 25 77 34 8.4 47.1 25.33 0.997
16:32 1024 30.24 853 25.19 24.9 76.8 28 5.4 41.7 25.33 0.997
16:33 1024 30.24 853 25.19 24.8 76.6 31 6.6 43.9 25.22 0.993
16:34 1024 30.24 853 25.19 24.8 76.6 29 6 42.7 25.26 0.994
16:35 1024 30.24 853 25.19 24.7 76.5 27 4.9 40.8 25.14 0.99
16:36 1024 30.24 853 25.19 24.7 76.4 32 7.2 44.9 25.1 0.988
16:37 1024 30.24 853 25.19 24.7 76.5 25 3.6 38.6 25.19 0.992
16:38 1024 30.24 853 25.19 24.7 76.5 27 4.8 40.6 25.15 0.99
16:39 1024 30.24 853 25.19 24.8 76.6 29 5.6 42 25.13 0.989
16:40 1024 30.24 853 25.19 24.9 76.8 26 4.5 40.1 25.2 0.992
16:41 1024 30.24 853 25.19 24.9 76.8 26 4.6 40.2 25.17 0.991
16:42 1024 30.24 853 25.19 24.9 76.9 28 5.4 41.7 25.18 0.991
16:43 1024 30.24 853 25.19 24.9 76.8 29 5.8 42.4 25.24 0.994
16:44 1024 30.24 853 25.19 25 76.9 31 6.7 44.1 25.32 0.997
16:45 1024 30.24 853 25.19 25 76.9 26 4.4 39.9 25.36 0.998
16:46 1024 30.24 853 25.19 25 77 25 3.9 39.1 25.37 0.999
16:47 1024 30.24 853 25.19 25 77.1 29 6.1 43 25.52 1.005
16:48 1024 30.24 853 25.19 25 77 26 4.6 40.3 25.53 1.005
16:49 1024 30.24 853 25.19 25 77.1 25 3.9 39.1 25.6 1.008
16:50 1024 30.24 853 25.19 25.1 77.2 32 7.5 45.6 25.67 1.011
16:51 1024 30.24 853 25.19 25.3 77.5 29 6.5 43.7 25.77 1.015
16:52 1024 30.24 853 25.19 25.3 77.5 28 5.9 42.6 25.67 1.011
16:53 1024 30.24 853 25.19 25.3 77.6 27 5.4 41.8 25.61 1.008
16:54 1024 30.24 853 25.19 25.3 77.5 28 5.9 42.7 25.51 1.004
16:55 1024 30.24 853 25.19 25.3 77.5 27 5.1 41.3 25.49 1.004
16:56 1024 30.24 853 25.19 25.2 77.3 27 4.9 40.8 25.47 1.003
16:57 1024 30.24 853 25.19 25.1 77.2 27 5.3 41.6 25.48 1.003
16:58 1024 30.24 853 25.19 25.2 77.4 29 6 42.8 25.67 1.011
16:59 1024 30.24 853 25.19 25.2 77.3 32 7.7 45.9 25.67 1.011
17:00 1024 30.24 853 25.19 25.1 77.1 26 4.2 39.6 25.56 1.006
17:01 1024 30.24 853 25.19 25.1 77.1 26 4.6 40.3 25.46 1.002
17:02 1024 30.24 853 25.19 25.1 77.3 23 3 37.5 25.44 1.002
17:03 1024 30.24 853 25.19 25.2 77.3 29 6.2 43.2 25.4 1
17:04 1024 30.24 853 25.19 25.3 77.5 29 6.3 43.3 25.58 1.007
17:05 1024 30.24 853 25.19 25.3 77.5 32 7.7 45.9 25.67 1.011
17:06 1024 30.24 853 25.19 25.2 77.3 29 6.1 42.9 25.6 1.008
17:07 1024 30.24 853 25.19 25.2 77.3 36 9.4 48.8 25.66 1.01
17:08 1024 30.24 853 25.19 25.3 77.5 28 5.7 42.2 25.78 1.015
17:09 1024 30.24 853 25.19 25.3 77.5 24 3.6 38.5 25.7 1.012
17:10 1024 30.24 853 25.19 25.2 77.4 28 5.7 42.3 25.67 1.011
17:11 1024 30.24 853 25.19 25.2 77.4 26 4.8 40.6 25.72 1.013
17:12 1024 30.24 853 25.19 25.3 77.5 30 6.6 43.9 25.72 1.013
17:13 1024 30.24 853 25.19 25.1 77.2 25 3.7 38.7 25.58 1.007
17:14 1024 30.24 853 25.19 25 77 28 5.4 41.7 25.4 1
17:15 1024 30.24 853 25.19 25 77.1 29 6.2 43.2 25.52 1.005
17:16 1024 30.24 853 25.19 25.1 77.1 31 7 44.5 25.59 1.007
17:17 1024 30.24 853 25.19 25.1 77.1 28 5.5 41.9 25.63 1.009
17:18 1024 30.24 853 25.19 25.1 77.2 26 4.8 40.6 25.62 1.009
17:19 1024 30.24 853 25.19 25.1 77.2 28 5.7 42.2 25.64 1.009
17:20 1024 30.24 853 25.19 25.2 77.4 25 4.2 39.5 25.72 1.013
17:21 1024 30.24 853 25.19 25.3 77.6 26 5 40.9 25.75 1.014
17:22 1024 30.24 853 25.19 25.6 78 29 6.4 43.5 25.87 1.019
17:23 1024 30.24 853 25.19 25.7 78.3 25 4.3 39.7 26.06 1.026
17:24 1023 30.21 853 25.19 25.6 78.1 27 5.3 41.5 26.04 1.025
17:25 1024 30.24 853 25.19 25.5 77.9 31 7.2 45 25.98 1.023
17:26 1024 30.24 853 25.19 25.4 77.7 25 4.1 39.4 25.82 1.017
17:27 1024 30.24 853 25.19 25.4 77.7 28 6 42.9 25.76 1.014
17:28 1023 30.21 853 25.19 25.4 77.7 32 7.9 46.2 25.84 1.017
17:29 1024 30.24 853 25.19 25.5 77.9 30 7.1 44.8 25.85 1.018
17:30 1024 30.24 853 25.19 25.4 77.8 24 3.7 38.6 25.76 1.014
17:31 1023 30.21 853 25.19 25.4 77.6 28 5.5 42 25.68 1.011
17:32 1023 30.21 853 25.19 25.4 77.8 27 5.3 41.6 25.73 1.013
17:33 1023 30.21 853 25.19 25.5 77.8 27 5.3 41.5 25.79 1.015
17:34 1023 30.21 853 25.19 25.5 77.8 22 2.7 36.9 25.76 1.014
17:35 1023 30.21 853 25.19 25.4 77.6 28 5.9 42.7 25.79 1.015
17:36 1023 30.21 853 25.19 25.2 77.4 29 6.1 43.1 25.7 1.012
17:37 1023 30.21 853 25.19 25.1 77.3 25 4.1 39.3 25.59 1.007
17:38 1023 30.21 853 25.19 25.1 77.1 24 3.5 38.3 25.5 1.004
17:39 1023 30.21 853 25.19 25.1 77.1 24 3.3 37.9 25.5 1.004
17:40 1023 30.21 853 25.19 25.1 77.2 31 6.8 44.2 25.57 1.007
17:41 1023 30.21 853 25.19 25.2 77.3 30 6.5 43.7 25.7 1.012
17:42 1023 30.21 853 25.19 25.2 77.3 24 3.5 38.2 25.63 1.009
17:43 1023 30.21 853 25.19 25.2 77.4 25 4.2 39.5 25.67 1.011
17:44 1023 30.21 853 25.19 25.3 77.5 26 4.9 40.8 25.72 1.013
17:45 1023 30.21 853 25.19 25.2 77.4 28 5.9 42.6 25.75 1.014
17:46 1023 30.21 853 25.19 25.2 77.4 27 5.3 41.6 25.74 1.013
17:47 1023 30.21 853 25.19 25.3 77.6 27 5.1 41.2 25.79 1.015
17:48 1023 30.21 853 25.19 25.4 77.7 29 6.5 43.7 25.85 1.018
17:49 1023 30.21 853 25.19 25.4 77.7 27 5.5 41.9 25.81 1.016
17:50 1023 30.21 853 25.19 25.4 77.7 26 5 41.1 25.82 1.017
17:51 1023 30.21 853 25.19 25.4 77.7 31 7 44.7 25.78 1.015
17:52 1023 30.21 853 25.19 25.4 77.7 29 6.2 43.1 25.76 1.014
17:53 1023 30.21 853 25.19 25.3 77.5 30 6.6 43.9 25.66 1.01
17:54 1023 30.21 853 25.19 25.3 77.5 22 2.4 36.3 25.63 1.009
17:55 1023 30.21 853 25.19 25.2 77.4 27 5 41 25.58 1.007
17:56 1023 30.21 853 25.19 25.3 77.5 25 3.9 39 25.61 1.008
17:57 1023 30.21 853 25.19 25.3 77.5 23 2.7 36.9 25.62 1.009
17:58 1023 30.21 853 25.19 25.3 77.6 31 7.3 45.1 25.67 1.011
17:59 1023 30.21 853 25.19 25.4 77.8 29 6.4 43.6 25.81 1.016
18:00 1023 30.21 853 25.19 25.4 77.8 27 5.1 41.1 25.78 1.015
18:01 1023 30.21 853 25.19 25.4 77.6 27 5 41 25.7 1.012
18:02 1023 30.21 853 25.19 25.3 77.6 27 5.4 41.8 25.68 1.011
18:03 1023 30.21 853 25.19 25.4 77.7 22 2.3 36.1 25.71 1.012
18:04 1023 30.21 853 25.19 25.4 77.6 24 3.4 38.1 25.62 1.009
18:05 1023 30.21 853 25.19 25.3 77.6 26 4.5 40.2 25.65 1.01
18:06 1023 30.21 853 25.19 25.3 77.5 26 4.4 40 25.64 1.009
18:07 1023 30.21 853 25.19 25.2 77.3 23 2.8 37.1 25.5 1.004
18:08 1023 30.21 853 25.19 25.1 77.2 25 4.2 39.5 25.45 1.002
18:09 1023 30.21 853 25.19 25.1 77.2 22 2 35.7 25.47 1.003
18:10 1023 30.21 853 25.19 25.1 77.3 27 4.9 40.8 25.48 1.003
18:11 1023 30.21 853 25.19 25.2 77.3 25 4.1 39.4 25.59 1.007
18:12 1023 30.21 853 25.19 25.2 77.4 22 2 35.6 25.62 1.009
18:13 1023 30.21 853 25.19 25.2 77.4 26 4.8 40.6 25.57 1.007
18:14 1023 30.21 853 25.19 25.3 77.6 26 4.9 40.8 25.67 1.011
18:15 1023 30.21 853 25.19 25.4 77.7 25 4.1 39.3 25.76 1.014
18:16 1023 30.21 853 25.19 25.4 77.8 23 3.1 37.6 25.72 1.013
18:17 1023 30.21 853 25.19 25.4 77.7 27 5.5 41.9 25.71 1.012
18:18 1023 30.21 853 25.19 25.5 77.9 29 6.3 43.4 25.82 1.017
18:19 1023 30.21 853 25.19 25.4 77.8 26 4.6 40.3 25.72 1.013
18:20 1023 30.21 853 25.19 25.3 77.5 24 3.7 38.6 25.59 1.007
18:21 1023 30.21 852 25.16 25.2 77.4 27 5 41 25.5 1.004
18:22 1023 30.21 852 25.16 25.2 77.3 25 4 39.3 25.44 1.002
18:23 1023 30.21 853 25.19 25.2 77.3 28 5.4 41.7 25.43 1.001
18:24 1023 30.21 852 25.16 25.2 77.3 29 5.9 42.6 25.45 1.002
18:25 1023 30.21 852 25.16 25.1 77.2 26 4.6 40.3 25.46 1.002
18:26 1023 30.21 852 25.16 25.2 77.3 25 4 39.3 25.5 1.004
18:27 1023 30.21 853 25.19 25.2 77.4 24 3.5 38.3 25.48 1.003
18:28 1023 30.21 852 25.16 25.3 77.5 26 4.7 40.4 25.54 1.006
18:29 1023 30.21 852 25.16 25.3 77.5 25 3.9 39 25.56 1.006
18:30 1023 30.21 852 25.16 25.2 77.4 25 3.8 38.9 25.58 1.007
18:31 1023 30.21 852 25.16 25.3 77.5 26 4.4 39.9 25.65 1.01
18:32 1023 30.21 852 25.16 25.3 77.5 26 4.8 40.7 25.63 1.009
18:33 1023 30.21 852 25.16 25.3 77.5 27 5 41 25.66 1.01
18:34 1023 30.21 852 25.16 25.3 77.5 24 3.7 38.7 25.63 1.009
18:35 1023 30.21 852 25.16 25.3 77.5 29 6 42.9 25.63 1.009
18:36 1023 30.21 852 25.16 25.3 77.5 28 5.7 42.3 25.62 1.009
18:37 1023 30.21 852 25.16 25.3 77.5 25 4.2 39.6 25.56 1.006
18:38 1023 30.21 852 25.16 25.2 77.4 28 5.8 42.4 25.54 1.006
18:39 1023 30.21 852 25.16 25.3 77.5 24 3.3 37.9 25.54 1.006
18:40 1023 30.21 852 25.16 25.3 77.6 28 6 42.8 25.58 1.007
18:41 1023 30.21 852 25.16 25.3 77.6 26 4.9 40.8 25.58 1.007
18:42 1023 30.21 852 25.16 25.3 77.5 27 5.4 41.7 25.54 1.006
18:43 1023 30.21 852 25.16 25.3 77.5 27 5.3 41.6 25.55 1.006
18:44 1023 30.21 852 25.16 25.3 77.5 30 6.8 44.3 25.54 1.006
18:45 1023 30.21 852 25.16 25.2 77.4 27 5.3 41.6 25.49 1.004
18:46 1023 30.21 852 25.16 25.2 77.4 28 5.7 42.3 25.43 1.001
18:47 1023 30.21 852 25.16 25.2 77.4 28 5.8 42.4 25.4 1
18:48 1023 30.21 852 25.16 25.2 77.4 28 5.9 42.6 25.4 1
18:49 1023 30.21 852 25.16 25.2 77.3 27 5.3 41.6 25.36 0.998
18:50 1023 30.21 852 25.16 25.2 77.3 27 5.3 41.6 25.36 0.998
18:51 1023 30.21 852 25.16 25.2 77.3 30 6.7 44.1 25.36 0.998
18:52 1023 30.21 852 25.16 25.2 77.3 28 5.6 42.1 25.38 0.999
18:53 1023 30.21 852 25.16 25.2 77.4 28 5.9 42.6 25.34 0.998
18:54 1023 30.21 852 25.16 25.1 77.3 26 4.3 39.8 25.34 0.998
18:55 1023 30.21 852 25.16 25.2 77.3 26 4.8 40.6 25.39 1
18:56 1023 30.21 852 25.16 25.3 77.5 28 5.7 42.2 25.43 1.001
18:57 1023 30.21 852 25.16 25.3 77.6 27 5 41.1 25.43 1.001
18:58 1023 30.21 852 25.16 25.3 77.6 32 7.6 45.7 25.47 1.003
18:59 1023 30.21 852 25.16 25.4 77.8 29 6.3 43.4 25.63 1.009
19:00 1023 30.21 852 25.16 25.5 77.8 25 4.3 39.8 25.61 1.008
19:01 1023 30.21 852 25.16 25.5 77.9 28 6 42.8 25.57 1.007
19:02 1023 30.21 852 25.16 25.5 77.9 30 6.7 44 25.68 1.011
19:03 1023 30.21 852 25.16 25.5 77.9 29 6.4 43.5 25.72 1.013
19:04 1023 30.21 852 25.16 25.5 77.9 29 6.7 44 25.75 1.014
19:05 1023 30.21 852 25.16 25.5 77.8 27 5.6 42 25.7 1.012
19:06 1023 30.21 852 25.16 25.4 77.6 25 4.2 39.5 25.49 1.004
19:07 1023 30.21 852 25.16 25.2 77.4 27 5.2 41.4 25.33 0.997
19:08 1023 30.21 852 25.16 25.1 77.3 24 3.6 38.6 25.29 0.996
19:09 1023 30.21 852 25.16 25.1 77.2 28 5.7 42.3 25.21 0.993
19:10 1023 30.21 852 25.16 25 77.1 27 5.2 41.4 25.13 0.989
19:11 1023 30.21 852 25.16 25 76.9 26 4.2 39.5 24.98 0.983
19:12 1023 30.21 852 25.16 24.9 76.8 25 3.5 38.4 24.9 0.98
19:13 1023 30.21 852 25.16 24.9 76.7 25 3.5 38.4 24.9 0.98
19:14 1023 30.21 852 25.16 24.9 76.8 25 3.9 39.1 24.87 0.979
19:15 1023 30.21 852 25.16 24.9 76.7 28 5.2 41.3 24.87 0.979
19:16 1023 30.21 852 25.16 24.8 76.6 26 4.5 40.1 24.78 0.976
19:17 1023 30.21 852 25.16 24.8 76.6 22 1.6 34.9 24.75 0.974
19:18 1023 30.21 852 25.16 24.8 76.6 27 5 40.9 24.85 0.978
19:19 1023 30.21 852 25.16 24.8 76.6 29 5.9 42.6 24.92 0.981
19:20 1023 30.21 852 25.16 24.7 76.5 27 4.8 40.6 24.87 0.979
19:21 1023 30.21 852 25.16 24.7 76.5 26 4.4 39.9 24.82 0.977
19:22 1023 30.21 852 25.16 24.7 76.5 28 5.4 41.7 24.79 0.976
19:23 1023 30.21 852 25.16 24.7 76.5 28 5.2 41.4 24.82 0.977
19:24 1023 30.21 852 25.16 24.7 76.5 28 5 41 24.84 0.978
19:25 1023 30.21 852 25.16 24.7 76.4 24 2.8 37.1 24.75 0.974
19:26 1023 30.21 852 25.16 24.8 76.6 27 4.6 40.3 24.76 0.975
19:27 1023 30.21 852 25.16 24.8 76.6 30 6.1 42.9 24.87 0.979
19:28 1023 30.21 852 25.16 24.8 76.6 30 6.5 43.7 24.89 0.98
19:29 1023 30.21 852 25.16 24.8 76.6 28 5.4 41.7 24.87 0.979
19:30 1023 30.21 852 25.16 24.6 76.3 29 5.9 42.6 24.75 0.974
19:31 1023 30.21 852 25.16 24.6 76.2 29 5.8 42.5 24.74 0.974
19:32 1023 30.21 852 25.16 24.6 76.3 30 6.2 43.2 24.72 0.973
19:33 1023 30.21 852 25.16 24.6 76.2 33 7.5 45.5 24.76 0.975
19:34 1023 30.21 852 25.16 24.6 76.3 28 5.3 41.5 24.75 0.974
19:35 1023 30.21 852 25.16 24.6 76.2 30 5.9 42.5 24.78 0.976
19:36 1023 30.21 852 25.16 24.6 76.3 30 6 42.8 24.83 0.978
19:37 1023 30.21 852 25.16 24.6 76.4 30 6 42.8 24.78 0.976
19:38 1023 30.21 852 25.16 24.6 76.2 28 5.1 41.2 24.69 0.972
19:39 1023 30.21 852 25.16 24.6 76.2 28 5.1 41.2 24.63 0.97
19:40 1023 30.21 852 25.16 24.6 76.2 30 5.9 42.6 24.65 0.97
19:41 1023 30.21 852 25.16 24.5 76.1 30 6.1 42.9 24.63 0.97
19:42 1023 30.21 852 25.16 24.5 76 28 5.1 41.2 24.61 0.969
19:43 1023 30.21 852 25.16 24.4 76 31 6.5 43.8 24.59 0.968
19:44 1023 30.21 852 25.16 24.5 76 31 6.6 43.9 24.65 0.97
19:45 1023 30.21 852 25.16 24.4 76 25 3.5 38.3 24.62 0.969
19:46 1023 30.21 852 25.16 24.4 76 28 4.9 40.8 24.65 0.97
19:47 1023 30.21 852 25.16 24.5 76.1 30 5.9 42.5 24.7 0.972
19:48 1023 30.21 852 25.16 24.5 76.1 29 5.7 42.2 24.74 0.974
19:49 1023 30.21 852 25.16 24.6 76.2 26 4.1 39.3 24.66 0.971
19:50 1023 30.21 852 25.16 24.6 76.3 28 5 41 24.77 0.975
19:51 1023 30.21 852 25.16 24.7 76.4 30 6.3 43.3 24.87 0.979
19:52 1023 30.21 852 25.16 24.6 76.3 28 5.3 41.5 24.9 0.98
19:53 1023 30.21 852 25.16 24.6 76.3 28 5.3 41.6 24.88 0.98
19:54 1023 30.21 852 25.16 24.6 76.3 28 5.2 41.4 24.92 0.981
19:55 1023 30.21 852 25.16 24.7 76.5 27 4.9 40.8 25 0.984
19:56 1023 30.21 852 25.16 24.8 76.6 31 6.7 44 25.06 0.987
19:57 1023 30.21 852 25.16 24.8 76.6 28 5.4 41.7 25.09 0.988
19:58 1023 30.21 852 25.16 24.8 76.7 28 5.2 41.4 25 0.984
19:59 1023 30.21 852 25.16 24.8 76.6 29 5.6 42.1 25.02 0.985
20:00 1023 30.21 852 25.16 24.7 76.5 29 5.8 42.4 25.05 0.986
20:01 1023 30.21 852 25.16 24.7 76.4 30 6.1 42.9 25.03 0.985
20:02 1023 30.21 852 25.16 24.6 76.3 30 6.2 43.2 25.04 0.986
20:03 1023 30.21 852 25.16 24.6 76.3 31 6.6 43.9 25.08 0.987
20:04 1023 30.21 852 25.16 24.7 76.4 37 9 48.3 25.13 0.989
20:05 1023 30.21 852 25.16 24.7 76.5 41 10.7 51.2 25.17 0.991
20:06 1023 30.21 852 25.16 24.6 76.4 40 10.3 50.6 25.2 0.992
20:07 1023 30.21 852 25.16 24.5 76.2 38 9.6 49.2 25.08 0.987
20:08 1023 30.21 852 25.16 24.3 75.8 38 9.5 49.1 24.92 0.981
20:09 1023 30.21 852 25.16 24 75.3 44 11.2 52.2 24.71 0.973
20:10 1023 30.21 852 25.16 23.7 74.7 42 10.3 50.6 24.45 0.963
20:11 1023 30.21 853 25.19 23.5 74.3 37 8.3 47 24.14 0.95
20:12 1023 30.21 853 25.19 23.3 74 39 8.9 48.1 23.93 0.942
20:13 1023 30.21 853 25.19 23.2 73.7 39 8.5 47.3 23.74 0.935
20:14 1023 30.21 853 25.19 23.1 73.5 37 7.8 46 23.6 0.929
20:15 1023 30.21 853 25.19 23.1 73.5 35 6.8 44.2 23.52 0.926
20:16 1023 30.21 853 25.19 23 73.5 34 6.5 43.8 23.49 0.925
20:17 1023 30.21 853 25.19 23.1 73.5 36 7.4 45.3 23.48 0.924
20:18 1023 30.21 853 25.19 23 73.5 38 8 46.3 23.47 0.924
20:19 1023 30.21 853 25.19 23 73.3 39 8.5 47.3 23.41 0.922
20:20 1023 30.21 853 25.19 22.8 73.1 39 8.5 47.3 23.33 0.919
20:21 1023 30.21 853 25.19 22.7 72.9 39 8.3 47 23.15 0.911
20:22 1023 30.21 853 25.19 22.5 72.5 42 9.1 48.4 22.95 0.904
20:23 1023 30.21 853 25.19 22.4 72.3 43 9.5 49.1 22.78 0.897
20:24 1023 30.21 853 25.19 22.3 72.1 47 10.5 50.9 22.66 0.892
20:25 1023 30.21 853 25.19 22 71.6 50 11.3 52.4 22.41 0.882
20:26 1023 30.21 853 25.19 21.6 70.9 53 11.7 53 22.02 0.867
20:27 1023 30.21 853 25.19 21.3 70.3 53 11.5 52.7 21.65 0.852
20:28 1023 30.21 853 25.19 21 69.8 56 12.1 53.8 21.36 0.841
20:29 1023 30.21 853 25.19 20.7 69.3 59 12.5 54.5 21.06 0.829
20:30 1023 30.21 853 25.19 20.4 68.7 61 12.7 54.8 20.79 0.819
20:31 1023 30.21 853 25.19 20 68.1 62 12.7 54.8 20.49 0.807
20:32 1023 30.21 853 25.19 19.8 67.7 63 12.7 54.8 20.22 0.796
20:33 1023 30.21 853 25.19 19.6 67.3 64 12.6 54.7 19.98 0.787
20:34 1023 30.21 853 25.19 19.4 67 64 12.4 54.4 19.78 0.779
20:35 1023 30.21 853 25.19 19.3 66.7 64 12.4 54.3 19.59 0.771
20:36 1023 30.21 853 25.19 19 66.3 67 12.8 55.1 19.39 0.763
20:37 1023 30.21 853 25.19 18.7 65.7 67 12.5 54.6 19.19 0.756
20:38 1023 30.21 853 25.19 18.5 65.3 68 12.5 54.4 18.92 0.745
20:39 1023 30.21 853 25.19 18.3 65 68 12.5 54.5 18.76 0.739
20:40 1023 30.21 853 25.19 18.1 64.6 67 12 53.6 18.58 0.731
20:41 1023 30.21 853 25.19 18 64.4 68 12.1 53.8 18.41 0.725
20:42 1023 30.21 853 25.19 18 64.4 68 12 53.5 18.32 0.721
20:43 1023 30.21 853 25.19 18 64.3 67 11.9 53.5 18.28 0.72
20:44 1023 30.21 853 25.19 17.9 64.2 69 12.3 54.1 18.23 0.718
20:45 1023 30.21 853 25.19 17.6 63.7 69 12 53.6 18.01 0.709
20:46 1023 30.21 853 25.19 17.5 63.4 70 12.1 53.7 17.87 0.704
20:47 1023 30.21 853 25.19 17.3 63.2 70 11.9 53.5 17.71 0.697
20:48 1023 30.21 853 25.19 17.2 63 70 11.8 53.2 17.61 0.693
20:49 1023 30.21 853 25.19 17.2 62.9 70 11.7 53 17.47 0.688
20:50 1023 30.21 853 25.19 17 62.6 69 11.5 52.6 17.35 0.683
20:51 1023 30.21 853 25.19 16.9 62.4 70 11.4 52.6 17.25 0.679
20:52 1023 30.21 853 25.19 16.7 62.1 71 11.5 52.6 17.11 0.674
20:53 1023 30.21 853 25.19 16.5 61.8 72 11.5 52.7 16.96 0.668
20:54 1023 30.21 853 25.19 16.3 61.4 73 11.4 52.6 16.72 0.658
20:55 1024 30.24 853 25.19 16.1 61 72 11.1 52 16.47 0.648
20:56 1024 30.24 853 25.19 15.9 60.7 71 10.8 51.4 16.33 0.643
20:57 1024 30.24 853 25.19 15.9 60.5 71 10.7 51.2 16.22 0.639
20:58 1024 30.24 853 25.19 15.8 60.4 71 10.6 51.1 16.14 0.635
20:59 1024 30.24 853 25.19 15.7 60.3 72 10.6 51.2 16.07 0.633
21:00 1024 30.24 853 25.19 15.6 60 73 10.7 51.3 15.95 0.628
21:01 1024 30.24 853 25.19 15.4 59.7 73 10.7 51.3 15.78 0.621
21:02 1024 30.24 853 25.19 15.2 59.4 75 10.9 51.5 15.62 0.615
21:03 1024 30.24 853 25.19 15.1 59.1 75 10.8 51.4 15.47 0.609
21:04 1024 30.24 853 25.19 14.8 58.7 76 10.6 51.1 15.24 0.6
21:05 1024 30.24 853 25.19 14.7 58.4 76 10.5 50.9 15.09 0.594
21:06 1024 30.24 853 25.19 14.6 58.2 77 10.6 51 14.96 0.589
21:07 1024 30.24 853 25.19 14.4 57.9 77 10.5 50.9 14.82 0.583
21:08 1024 30.24 853 25.19 14.3 57.8 77 10.5 50.8 14.72 0.58
21:09 1024 30.24 853 25.19 14.3 57.7 78 10.4 50.8 14.68 0.578
21:10 1024 30.24 853 25.19 14.2 57.5 78 10.5 50.8 14.57 0.574
21:11 1024 30.24 853 25.19 14.1 57.4 78 10.4 50.7 14.52 0.572
21:12 1024 30.24 853 25.19 14.1 57.3 78 10.4 50.7 14.42 0.568
21:13 1024 30.24 853 25.19 14 57.2 79 10.4 50.7 14.41 0.567
21:14 1024 30.24 853 25.19 13.9 57 79 10.3 50.6 14.33 0.564
21:15 1024 30.24 853 25.19 13.8 56.8 80 10.4 50.6 14.19 0.559
21:16 1024 30.24 853 25.19 13.7 56.7 80 10.3 50.6 14.14 0.557
21:17 1024 30.24 853 25.19 13.7 56.6 80 10.3 50.5 14.08 0.554
21:18 1024 30.24 853 25.19 13.6 56.5 80 10.3 50.5 13.98 0.55
21:19 1024 30.24 853 25.19 13.5 56.4 80 10.1 50.2 13.88 0.546
21:20 1024 30.24 853 25.19 13.5 56.2 79 10 50 13.83 0.544
21:21 1024 30.24 853 25.19 13.4 56.1 78 9.7 49.5 13.79 0.543
21:22 1024 30.24 853 25.19 13.5 56.2 77 9.6 49.2 13.8 0.543
21:23 1024 30.24 853 25.19 13.5 56.4 77 9.7 49.4 13.82 0.544
21:24 1024 30.24 853 25.19 13.5 56.3 76 9.4 48.9 13.83 0.544
21:25 1024 30.24 853 25.19 13.6 56.4 75 9.2 48.6 13.87 0.546
21:26 1024 30.24 853 25.19 13.7 56.6 75 9.4 48.9 13.95 0.549
21:27 1024 30.24 853 25.19 13.7 56.6 75 9.4 49 13.95 0.549
21:28 1024 30.24 853 25.19 13.5 56.3 75 9.3 48.7 13.85 0.545
21:29 1024 30.24 853 25.19 13.4 56.1 75 9.1 48.4 13.75 0.541
21:30 1024 30.24 853 25.19 13.4 56.2 75 9.1 48.4 13.74 0.541
21:31 1024 30.24 853 25.19 13.4 56.1 75 9.1 48.4 13.71 0.54
21:32 1024 30.24 853 25.19 13.3 56 75 9.1 48.4 13.68 0.539
21:33 1024 30.24 853 25.19 13.3 56 75 9.1 48.4 13.62 0.536
21:34 1024 30.24 853 25.19 13.3 55.9 75 9 48.2 13.61 0.536
21:35 1024 30.24 853 25.19 13.2 55.8 75 9 48.2 13.58 0.535
21:36 1024 30.24 853 25.19 13.2 55.7 75 8.9 48.1 13.52 0.532
21:37 1024 30.24 853 25.19 13.1 55.6 76 9 48.2 13.46 0.53
21:38 1024 30.24 853 25.19 13 55.5 76 8.9 48 13.35 0.526
21:39 1024 30.24 853 25.19 13 55.4 75 8.8 47.8 13.33 0.525
21:40 1024 30.24 853 25.19 13 55.4 75 8.7 47.6 13.34 0.525
21:41 1024 30.24 853 25.19 13 55.5 74 8.6 47.5 13.37 0.526
21:42 1024 30.24 853 25.19 13 55.5 75 8.7 47.6 13.36 0.526
21:43 1024 30.24 853 25.19 13 55.4 74 8.6 47.4 13.31 0.524
21:44 1024 30.24 853 25.19 12.9 55.3 75 8.6 47.4 13.28 0.523
21:45 1024 30.24 853 25.19 12.9 55.3 74 8.5 47.3 13.24 0.521
21:46 1024 30.24 853 25.19 12.9 55.2 74 8.5 47.3 13.26 0.522
21:47 1024 30.24 853 25.19 12.8 55.1 74 8.4 47.1 13.14 0.517
21:48 1024 30.24 853 25.19 12.8 55 75 8.4 47.1 13.1 0.516
21:49 1024 30.24 853 25.19 12.7 54.9 74 8.2 46.8 13.05 0.514
21:50 1024 30.24 853 25.19 12.8 55 74 8.2 46.8 13.14 0.517
21:51 1024 30.24 853 25.19 13 55.4 73 8.3 47 13.34 0.525
21:52 1024 30.24 853 25.19 13.2 55.7 73 8.4 47.1 13.51 0.532
21:53 1024 30.24 853 25.19 13.3 55.9 72 8.4 47.1 13.55 0.533
21:54 1024 30.24 853 25.19 13.3 55.9 71 8.2 46.8 13.57 0.534
21:55 1024 30.24 853 25.19 13.3 56 71 8.2 46.7 13.61 0.536
21:56 1024 30.24 853 25.19 13.4 56 71 8.2 46.8 13.64 0.537
21:57 1024 30.24 853 25.19 13.4 56.1 69 7.8 46 13.69 0.539
21:58 1024 30.24 853 25.19 13.6 56.5 67 7.5 45.6 13.89 0.547
21:59 1024 30.24 853 25.19 13.9 57 65 7.5 45.5 14.14 0.557
22:00 1024 30.24 853 25.19 14.1 57.4 65 7.8 46 14.33 0.564
22:01 1024 30.24 853 25.19 14.2 57.5 65 7.8 46 14.37 0.566
22:02 1024 30.24 853 25.19 14.2 57.5 66 7.9 46.2 14.4 0.567
22:03 1024 30.24 853 25.19 14.1 57.4 66 7.9 46.2 14.41 0.567
22:04 1024 30.24 853 25.19 14.1 57.3 66 7.8 46 14.32 0.564
22:05 1024 30.24 853 25.19 14 57.2 66 7.8 46 14.28 0.562
22:06 1024 30.24 853 25.19 13.9 57.1 66 7.7 45.9 14.28 0.562
22:07 1024 30.24 853 25.19 14 57.1 66 7.7 45.8 14.24 0.561
22:08 1024 30.24 853 25.19 14 57.2 64 7.5 45.5 14.25 0.561
22:09 1024 30.24 853 25.19 14 57.3 64 7.4 45.3 14.33 0.564
22:10 1024 30.24 853 25.19 14.1 57.4 63 7.2 44.9 14.37 0.566
22:11 1024 30.24 853 25.19 14.3 57.7 61 7 44.5 14.53 0.572
22:12 1024 30.24 853 25.19 14.5 58 60 6.8 44.3 14.68 0.578
22:13 1024 30.24 853 25.19 14.6 58.3 59 6.7 44.1 14.85 0.585
22:14 1024 30.24 853 25.19 14.8 58.6 57 6.5 43.7 14.98 0.59
22:15 1024 30.24 853 25.19 15 59 55 6.1 43 15.18 0.598
22:16 1024 30.24 854 25.22 15.2 59.4 55 6.4 43.5 15.44 0.608
22:17 1024 30.24 854 25.22 15.3 59.6 55 6.4 43.6 15.53 0.611
22:18 1024 30.24 854 25.22 15.4 59.6 54 6.2 43.2 15.55 0.612
22:19 1024 30.24 854 25.22 15.4 59.8 54 6.2 43.2 15.63 0.615
22:20 1024 30.24 854 25.22 15.5 59.8 53 6 42.9 15.67 0.617
22:21 1024 30.24 854 25.22 15.5 59.9 53 6.2 43.1 15.72 0.619
22:22 1024 30.24 854 25.22 15.6 60 54 6.3 43.3 15.76 0.62
22:23 1024 30.24 854 25.22 15.5 59.9 54 6.3 43.3 15.73 0.619
22:24 1024 30.24 854 25.22 15.4 59.7 54 6.4 43.4 15.66 0.617
22:25 1024 30.24 854 25.22 15.3 59.5 55 6.4 43.5 15.53 0.611
22:26 1024 30.24 854 25.22 15.1 59.1 56 6.4 43.5 15.4 0.606
22:27 1024 30.24 854 25.22 14.9 58.8 57 6.5 43.8 15.27 0.601
22:28 1024 30.24 854 25.22 14.8 58.7 55 6 42.8 15.14 0.596
22:29 1024 30.24 854 25.22 14.9 58.7 55 5.9 42.6 15.16 0.597
22:30 1024 30.24 854 25.22 15 58.9 55 6.1 43 15.2 0.598
22:31 1024 30.24 854 25.22 15 58.9 56 6.2 43.2 15.23 0.6
22:32 1024 30.24 854 25.22 14.9 58.9 57 6.5 43.8 15.2 0.598
22:33 1024 30.24 854 25.22 14.7 58.5 58 6.6 43.9 15.07 0.593
22:34 1024 30.24 854 25.22 14.6 58.2 58 6.5 43.7 14.9 0.587
22:35 1024 30.24 854 25.22 14.5 58 58 6.3 43.3 14.82 0.583
22:36 1024 30.24 854 25.22 14.5 58.1 58 6.4 43.5 14.83 0.584
22:37 1024 30.24 854 25.22 14.4 58 58 6.3 43.3 14.76 0.581
22:38 1024 30.24 854 25.22 14.5 58 57 6.1 42.9 14.75 0.581
22:39 1024 30.24 854 25.22 14.5 58.1 56 6 42.9 14.77 0.581
22:40 1024 30.24 854 25.22 14.5 58.1 57 6.2 43.2 14.8 0.583
22:41 1024 30.24 854 25.22 14.5 58 57 6.2 43.1 14.77 0.581
22:42 1024 30.24 854 25.22 14.4 57.9 58 6.3 43.4 14.71 0.579
22:43 1024 30.24 854 25.22 14.3 57.7 59 6.4 43.5 14.64 0.576
22:44 1024 30.24 854 25.22 14.2 57.6 59 6.5 43.7 14.56 0.573
22:45 1024 30.24 854 25.22 14.1 57.4 60 6.6 44 14.5 0.571
22:46 1024 30.24 854 25.22 14 57.2 60 6.4 43.5 14.34 0.565
22:47 1024 30.24 854 25.22 13.9 57 62 6.7 44.1 14.29 0.563
22:48 1024 30.24 854 25.22 13.6 56.5 63 6.8 44.2 14.03 0.552
22:49 1024 30.24 854 25.22 13.3 56 64 6.6 43.9 13.72 0.54
22:50 1024 30.24 854 25.22 13.2 55.7 65 6.7 44 13.55 0.533
22:51 1024 30.24 854 25.22 13.2 55.7 64 6.5 43.7 13.55 0.533
22:52 1024 30.24 854 25.22 13.2 55.8 64 6.6 43.8 13.6 0.535
22:53 1024 30.24 854 25.22 13.2 55.8 64 6.5 43.7 13.61 0.536
22:54 1024 30.24 854 25.22 13.3 55.9 64 6.7 44.1 13.62 0.536
22:55 1025 30.27 854 25.22 13.3 55.9 64 6.6 43.9 13.66 0.538
22:56 1025 30.27 854 25.22 13.3 55.9 64 6.8 44.2 13.65 0.537
22:57 1025 30.27 854 25.22 13.2 55.7 65 6.7 44.1 13.53 0.533
22:58 1025 30.27 854 25.22 13.1 55.6 65 6.7 44 13.46 0.53
22:59 1025 30.27 854 25.22 13 55.5 64 6.5 43.6 13.38 0.527
23:00 1025 30.27 854 25.22 13.1 55.5 63 6.3 43.3 13.45 0.53
23:01 1025 30.27 854 25.22 13.2 55.7 63 6.4 43.5 13.53 0.533
23:02 1025 30.27 854 25.22 13.2 55.8 62 6.2 43.2 13.53 0.533
23:03 1025 30.27 854 25.22 13.3 55.9 63 6.4 43.5 13.61 0.536
23:04 1025 30.27 854 25.22 13.3 55.9 63 6.3 43.4 13.59 0.535
23:05 1025 30.27 854 25.22 13.2 55.8 63 6.4 43.5 13.54 0.533
23:06 1025 30.27 854 25.22 13.1 55.6 63 6.4 43.4 13.46 0.53
23:07 1025 30.27 854 25.22 13.1 55.5 62 6.1 43 13.44 0.529
23:08 1025 30.27 854 25.22 13.2 55.7 62 6.1 42.9 13.5 0.531
23:09 1025 30.27 854 25.22 13.3 55.9 62 6.2 43.1 13.66 0.538
23:10 1025 30.27 854 25.22 13.3 56 62 6.3 43.4 13.66 0.538
23:11 1025 30.27 854 25.22 13.3 55.9 62 6.2 43.2 13.6 0.535
23:12 1025 30.27 854 25.22 13.2 55.8 63 6.4 43.6 13.6 0.535
23:13 1025 30.27 854 25.22 13.1 55.6 63 6.3 43.3 13.52 0.532
23:14 1025 30.27 854 25.22 13.2 55.7 63 6.3 43.3 13.51 0.532
23:15 1025 30.27 854 25.22 13.2 55.8 62 6.2 43.1 13.56 0.534
23:16 1025 30.27 854 25.22 13.2 55.8 63 6.3 43.3 13.59 0.535
23:17 1025 30.27 854 25.22 13.1 55.7 63 6.3 43.3 13.52 0.532
23:18 1025 30.27 854 25.22 13 55.4 64 6.4 43.5 13.35 0.526
23:19 1025 30.27 854 25.22 12.8 55.1 65 6.5 43.7 13.2 0.52
23:20 1025 30.27 854 25.22 12.7 54.8 66 6.5 43.8 13 0.512
23:21 1025 30.27 854 25.22 12.5 54.4 66 6.3 43.4 12.9 0.508
23:22 1025 30.27 854 25.22 12.5 54.5 66 6.3 43.4 12.83 0.505
23:23 1025 30.27 854 25.22 12.5 54.4 67 6.4 43.6 12.85 0.506
23:24 1025 30.27 854 25.22 12.4 54.3 66 6.3 43.4 12.79 0.504
23:25 1025 30.27 854 25.22 12.5 54.4 65 6.2 43.1 12.84 0.506
23:26 1025 30.27 854 25.22 12.6 54.7 65 6.3 43.3 12.95 0.51
23:27 1025 30.27 854 25.22 12.6 54.7 65 6.4 43.4 12.97 0.511
23:28 1025 30.27 854 25.22 12.5 54.6 66 6.4 43.5 12.9 0.508
23:29 1025 30.27 854 25.22 12.5 54.5 66 6.3 43.4 12.89 0.507
23:30 1025 30.27 854 25.22 12.5 54.4 65 6.2 43.1 12.81 0.504
23:31 1025 30.27 854 25.22 12.5 54.5 65 6.2 43.1 12.83 0.505
23:32 1025 30.27 854 25.22 12.5 54.4 66 6.3 43.4 12.84 0.506
23:33 1025 30.27 854 25.22 12.3 54.2 66 6.2 43.1 12.67 0.499
23:34 1025 30.27 854 25.22 12.3 54.1 66 6.1 42.9 12.62 0.497
23:35 1025 30.27 854 25.22 12.3 54.1 66 6.2 43.1 12.66 0.498
23:36 1025 30.27 854 25.22 12.3 54.1 65 6 42.9 12.66 0.498
23:37 1025 30.27 854 25.22 12.3 54.2 66 6.2 43.1 12.62 0.497
23:38 1025 30.27 854 25.22 12.3 54.1 66 6.2 43.2 12.62 0.497
23:39 1025 30.27 854 25.22 12.2 54 67 6.3 43.3 12.55 0.494
23:40 1025 30.27 854 25.22 12.1 53.9 66 6.1 42.9 12.51 0.493
23:41 1025 30.27 854 25.22 12.2 54 66 6.1 43 12.55 0.494
23:42 1025 30.27 854 25.22 12.3 54.1 65 5.9 42.7 12.55 0.494
23:43 1025 30.27 854 25.22 12.4 54.3 64 5.7 42.3 12.63 0.497
23:44 1025 30.27 854 25.22 12.5 54.5 64 5.9 42.6 12.77 0.503
23:45 1025 30.27 854 25.22 12.6 54.6 63 5.9 42.5 12.79 0.504
23:46 1025 30.27 854 25.22 12.6 54.7 64 6.1 43 12.84 0.506
23:47 1025 30.27 854 25.22 12.5 54.6 65 6.1 43 12.82 0.505
23:48 1025 30.27 854 25.22 12.5 54.4 65 6.1 42.9 12.73 0.501
23:49 1025 30.27 854 25.22 12.4 54.4 64 5.8 42.4 12.74 0.502
23:50 1025 30.27 854 25.22 12.6 54.6 62 5.6 42 12.88 0.507
23:51 1025 30.27 854 25.22 12.8 55.1 61 5.5 41.9 13.11 0.516
23:52 1025 30.27 854 25.22 13.1 55.5 60 5.6 42.1 13.3 0.524
23:53 1025 30.27 854 25.22 13.1 55.6 61 5.8 42.5 13.38 0.527
23:54 1025 30.27 854 25.22 13.1 55.5 62 6.1 42.9 13.34 0.525
23:55 1025 30.27 854 25.22 12.9 55.1 63 6.1 43 13.2 0.52
23:56 1025 30.27 854 25.22 12.7 54.9 63 5.9 42.7 13.08 0.515
23:57 1025 30.27 854 25.22 12.6 54.6 62 5.6 42.1 12.94 0.509
23:58 1025 30.27 854 25.22 12.5 54.5 64 5.9 42.6 12.86 0.506
23:59 1025 30.27 854 25.22 12.4 54.3 64 5.9 42.6 12.77 0.503
24:00 1025 30.27 854 25.22 12.4 54.3 64 5.9 42.6 12.68 0.499